HAZ766 ZSPD-NZAA
Flight info
| Callsign | HAZ766 |
|---|---|
| Flight time | 10h 38m |
| Altitude | 31000 |
| Route | LAM81D LAMEN A593 SADLI Y590 BEDAR Y591 ISPIT Z41 AGIKA G339 UNZ A597 DUGAN BASI9B |
| Aircraft | B77W/H-SDE1E2E3FGHIJ2J3J4J5M1RWXY/LB1D1 |
Departure
| Time | 2026-05-04 19:24 |
|---|---|
| Airport | Shanghai Pudong International Airport (ZSPD) |
Arrival
| Time | 2026-05-05 06:02 |
|---|---|
| Airport | Auckland International Airport (NZAA) |
| Time | Latitude | Longitude | Altitude | Speed | Heading |
|---|---|---|---|---|---|
| 2026-05-04 18:45 | 31.13599 | 121.80221 | 28 ft | 0 kts | 72° |
| 2026-05-04 19:01 | 31.13597 | 121.80214 | 28 ft | 2 kts | 72° |
| 2026-05-04 19:02 | 31.13592 | 121.80198 | 28 ft | 2 kts | 72° |
| 2026-05-04 19:02 | 31.13589 | 121.80187 | 28 ft | 2 kts | 71° |
| 2026-05-04 19:02 | 31.13583 | 121.80170 | 28 ft | 2 kts | 56° |
| 2026-05-04 19:02 | 31.13574 | 121.80157 | 28 ft | 2 kts | 41° |
| 2026-05-04 19:03 | 31.13561 | 121.80146 | 28 ft | 2 kts | 28° |
| 2026-05-04 19:03 | 31.13547 | 121.80139 | 28 ft | 2 kts | 15° |
| 2026-05-04 19:03 | 31.13533 | 121.80136 | 28 ft | 2 kts | 2° |
| 2026-05-04 19:03 | 31.13518 | 121.80138 | 28 ft | 2 kts | 348° |
| 2026-05-04 19:04 | 31.13510 | 121.80140 | 28 ft | 1 kts | 341° |
| 2026-05-04 19:04 | 31.13509 | 121.80140 | 28 ft | 0 kts | 341° |
| 2026-05-04 19:13 | 31.13516 | 121.80138 | 28 ft | 1 kts | 341° |
| 2026-05-04 19:14 | 31.13528 | 121.80126 | 28 ft | 2 kts | 301° |
| 2026-05-04 19:14 | 31.13527 | 121.80112 | 28 ft | 2 kts | 245° |
| 2026-05-04 19:14 | 31.13515 | 121.80083 | 28 ft | 5 kts | 245° |
| 2026-05-04 19:14 | 31.13495 | 121.80033 | 28 ft | 8 kts | 245° |
| 2026-05-04 19:15 | 31.13468 | 121.79964 | 28 ft | 10 kts | 245° |
| 2026-05-04 19:15 | 31.13445 | 121.79876 | 28 ft | 12 kts | 268° |
| 2026-05-04 19:15 | 31.13524 | 121.79802 | 28 ft | 13 kts | 341° |
| 2026-05-04 19:15 | 31.13586 | 121.79779 | 28 ft | 14 kts | 342° |
| 2026-05-04 19:16 | 31.13682 | 121.79743 | 28 ft | 14 kts | 342° |
| 2026-05-04 19:16 | 31.13780 | 121.79706 | 28 ft | 14 kts | 342° |
| 2026-05-04 19:16 | 31.13877 | 121.79668 | 28 ft | 14 kts | 342° |
| 2026-05-04 19:16 | 31.13976 | 121.79631 | 28 ft | 15 kts | 342° |
| 2026-05-04 19:17 | 31.14077 | 121.79593 | 28 ft | 15 kts | 342° |
| 2026-05-04 19:17 | 31.14176 | 121.79555 | 28 ft | 15 kts | 342° |
| 2026-05-04 19:17 | 31.14278 | 121.79518 | 28 ft | 15 kts | 342° |
| 2026-05-04 19:17 | 31.14381 | 121.79480 | 28 ft | 15 kts | 342° |
| 2026-05-04 19:18 | 31.14483 | 121.79443 | 28 ft | 15 kts | 342° |
| 2026-05-04 19:18 | 31.14585 | 121.79404 | 28 ft | 15 kts | 341° |
| 2026-05-04 19:18 | 31.14686 | 121.79362 | 28 ft | 15 kts | 340° |
| 2026-05-04 19:18 | 31.14790 | 121.79324 | 28 ft | 15 kts | 342° |
| 2026-05-04 19:19 | 31.14894 | 121.79284 | 28 ft | 15 kts | 342° |
| 2026-05-04 19:19 | 31.14996 | 121.79246 | 28 ft | 15 kts | 342° |
| 2026-05-04 19:19 | 31.15100 | 121.79207 | 28 ft | 15 kts | 342° |
| 2026-05-04 19:19 | 31.15204 | 121.79168 | 28 ft | 15 kts | 342° |
| 2026-05-04 19:20 | 31.15308 | 121.79129 | 28 ft | 15 kts | 342° |
| 2026-05-04 19:20 | 31.15414 | 121.79089 | 28 ft | 15 kts | 342° |
| 2026-05-04 19:20 | 31.15518 | 121.79050 | 28 ft | 15 kts | 342° |
| 2026-05-04 19:20 | 31.15622 | 121.79011 | 28 ft | 15 kts | 342° |
| 2026-05-04 19:21 | 31.15727 | 121.78972 | 28 ft | 15 kts | 342° |
| 2026-05-04 19:21 | 31.15831 | 121.78932 | 28 ft | 15 kts | 342° |
| 2026-05-04 19:21 | 31.15937 | 121.78893 | 28 ft | 15 kts | 342° |
| 2026-05-04 19:21 | 31.16041 | 121.78853 | 28 ft | 15 kts | 342° |
| 2026-05-04 19:22 | 31.16134 | 121.78805 | 28 ft | 13 kts | 314° |
| 2026-05-04 19:22 | 31.16136 | 121.78707 | 28 ft | 12 kts | 251° |
| 2026-05-04 19:22 | 31.16116 | 121.78638 | 28 ft | 8 kts | 251° |
| 2026-05-04 19:22 | 31.16080 | 121.78618 | 28 ft | 6 kts | 169° |
| 2026-05-04 19:23 | 31.16040 | 121.78632 | 28 ft | 6 kts | 162° |
| 2026-05-04 19:23 | 31.15866 | 121.78699 | 28 ft | 58 kts | 161° |
| 2026-05-04 19:23 | 31.15249 | 121.78932 | 28 ft | 128 kts | 160° |
| 2026-05-04 19:23 | 31.14194 | 121.79342 | 52 ft | 186 kts | 161° |
| 2026-05-04 19:24 | 31.12911 | 121.79799 | 741 ft | 194 kts | 162° |
| 2026-05-04 19:24 | 31.11636 | 121.80341 | 1513 ft | 198 kts | 165° |
| 2026-05-04 19:24 | 31.10258 | 121.80753 | 1874 ft | 213 kts | 167° |
| 2026-05-04 19:24 | 31.08768 | 121.81222 | 2211 ft | 230 kts | 165° |
| 2026-05-04 19:25 | 31.07184 | 121.81754 | 2724 ft | 241 kts | 165° |
| 2026-05-04 19:25 | 31.05560 | 121.82304 | 3351 ft | 247 kts | 165° |
| 2026-05-04 19:25 | 31.03877 | 121.82873 | 3963 ft | 254 kts | 165° |
| 2026-05-04 19:25 | 31.02176 | 121.83449 | 4603 ft | 259 kts | 165° |
| 2026-05-04 19:26 | 31.00428 | 121.84038 | 5232 ft | 264 kts | 164° |
| 2026-05-04 19:26 | 30.98666 | 121.84739 | 5874 ft | 268 kts | 159° |
| 2026-05-04 19:26 | 30.96934 | 121.85552 | 6508 ft | 272 kts | 158° |
| 2026-05-04 19:26 | 30.95161 | 121.86394 | 7156 ft | 275 kts | 158° |
| 2026-05-04 19:27 | 30.93386 | 121.87230 | 7810 ft | 277 kts | 158° |
| 2026-05-04 19:27 | 30.91577 | 121.87994 | 8399 ft | 281 kts | 163° |
| 2026-05-04 19:27 | 30.89693 | 121.88649 | 9025 ft | 283 kts | 163° |
| 2026-05-04 19:27 | 30.87788 | 121.89324 | 9602 ft | 287 kts | 163° |
| 2026-05-04 19:28 | 30.85870 | 121.90025 | 10197 ft | 289 kts | 161° |
| 2026-05-04 19:28 | 30.83969 | 121.90974 | 10543 ft | 302 kts | 151° |
| 2026-05-04 19:28 | 30.82192 | 121.92363 | 10946 ft | 314 kts | 140° |
| 2026-05-04 19:28 | 30.80603 | 121.94193 | 11204 ft | 330 kts | 129° |
| 2026-05-04 19:29 | 30.79307 | 121.96455 | 11444 ft | 346 kts | 117° |
| 2026-05-04 19:29 | 30.78411 | 121.99106 | 11697 ft | 362 kts | 104° |
| 2026-05-04 19:29 | 30.78027 | 122.02083 | 11934 ft | 378 kts | 90° |
| 2026-05-04 19:29 | 30.78258 | 122.05173 | 12177 ft | 393 kts | 76° |
| 2026-05-04 19:30 | 30.79138 | 122.08207 | 12529 ft | 404 kts | 64° |
| 2026-05-04 19:30 | 30.80554 | 122.11042 | 13083 ft | 408 kts | 52° |
| 2026-05-04 19:30 | 30.82388 | 122.13630 | 13696 ft | 412 kts | 48° |
| 2026-05-04 19:30 | 30.84170 | 122.16360 | 14328 ft | 418 kts | 54° |
| 2026-05-04 19:31 | 30.85681 | 122.19268 | 14918 ft | 424 kts | 60° |
| 2026-05-04 19:31 | 30.87031 | 122.22345 | 15524 ft | 429 kts | 63° |
| 2026-05-04 19:31 | 30.88262 | 122.25509 | 16107 ft | 434 kts | 63° |
| 2026-05-04 19:31 | 30.89792 | 122.28548 | 16657 ft | 436 kts | 52° |
| 2026-05-04 19:32 | 30.91719 | 122.31313 | 17195 ft | 440 kts | 47° |
| 2026-05-04 19:32 | 30.93730 | 122.34014 | 17737 ft | 444 kts | 46° |
| 2026-05-04 19:32 | 30.95754 | 122.36748 | 18295 ft | 448 kts | 48° |
| 2026-05-04 19:32 | 30.97542 | 122.39730 | 18777 ft | 456 kts | 58° |
| 2026-05-04 19:33 | 30.98920 | 122.43127 | 19290 ft | 462 kts | 68° |
| 2026-05-04 19:33 | 30.99795 | 122.46729 | 19783 ft | 468 kts | 78° |
| 2026-05-04 19:33 | 31.00152 | 122.50519 | 20280 ft | 472 kts | 88° |
| 2026-05-04 19:33 | 31.00157 | 122.54332 | 20779 ft | 476 kts | 90° |
| 2026-05-04 19:34 | 31.00126 | 122.58244 | 21233 ft | 481 kts | 90° |
| 2026-05-04 19:34 | 31.00102 | 122.62132 | 21677 ft | 486 kts | 90° |
| 2026-05-04 19:34 | 31.00084 | 122.66121 | 22109 ft | 491 kts | 91° |
| 2026-05-04 19:34 | 31.00071 | 122.70127 | 22499 ft | 495 kts | 91° |
| 2026-05-04 19:35 | 31.00060 | 122.74143 | 22889 ft | 500 kts | 90° |
| 2026-05-04 19:35 | 31.00051 | 122.78246 | 23297 ft | 504 kts | 90° |
| 2026-05-04 19:35 | 31.00042 | 122.82387 | 23635 ft | 510 kts | 91° |
| 2026-05-04 19:35 | 31.00034 | 122.86568 | 24012 ft | 514 kts | 91° |
| 2026-05-04 19:36 | 31.00027 | 122.90849 | 24384 ft | 519 kts | 90° |
| 2026-05-04 19:36 | 31.00304 | 122.95090 | 24749 ft | 523 kts | 81° |
| 2026-05-04 19:36 | 31.01106 | 122.99241 | 25065 ft | 528 kts | 72° |
| 2026-05-04 19:36 | 31.02453 | 123.03320 | 25424 ft | 530 kts | 62° |
| 2026-05-04 19:37 | 31.04285 | 123.07112 | 25798 ft | 530 kts | 53° |
| 2026-05-04 19:37 | 31.06448 | 123.10696 | 26185 ft | 533 kts | 51° |
| 2026-05-04 19:37 | 31.08681 | 123.14292 | 26623 ft | 535 kts | 51° |
| 2026-05-04 19:37 | 31.10935 | 123.17931 | 26979 ft | 540 kts | 51° |
| 2026-05-04 19:38 | 31.13154 | 123.21526 | 27267 ft | 545 kts | 51° |
| 2026-05-04 19:38 | 31.15445 | 123.25251 | 27667 ft | 548 kts | 51° |
| 2026-05-04 19:38 | 31.17736 | 123.28986 | 28035 ft | 552 kts | 51° |
| 2026-05-04 19:38 | 31.19971 | 123.32635 | 28383 ft | 555 kts | 51° |
| 2026-05-04 19:39 | 31.22290 | 123.36430 | 28664 ft | 561 kts | 51° |
| 2026-05-04 19:39 | 31.24626 | 123.40256 | 28999 ft | 565 kts | 51° |
| 2026-05-04 19:39 | 31.26887 | 123.43968 | 29396 ft | 567 kts | 51° |
| 2026-05-04 19:39 | 31.29208 | 123.47784 | 29907 ft | 567 kts | 51° |
| 2026-05-04 19:40 | 31.31464 | 123.51497 | 30407 ft | 566 kts | 51° |
| 2026-05-04 19:40 | 31.33763 | 123.55283 | 30862 ft | 565 kts | 51° |
| 2026-05-04 19:40 | 31.36080 | 123.59075 | 31094 ft | 569 kts | 50° |
| 2026-05-04 19:41 | 31.40710 | 123.66641 | 31114 ft | 569 kts | 51° |
| 2026-05-04 19:41 | 31.45278 | 123.74126 | 31100 ft | 566 kts | 51° |
| 2026-05-04 19:42 | 31.49869 | 123.81664 | 31101 ft | 566 kts | 51° |
| 2026-05-04 19:42 | 31.54455 | 123.89208 | 31108 ft | 567 kts | 51° |
| 2026-05-04 19:43 | 31.58965 | 123.96805 | 31120 ft | 568 kts | 56° |
| 2026-05-04 19:43 | 31.62137 | 124.05319 | 31115 ft | 572 kts | 73° |
| 2026-05-04 19:44 | 31.64195 | 124.14287 | 31132 ft | 573 kts | 75° |
| 2026-05-04 19:44 | 31.66213 | 124.23341 | 31118 ft | 570 kts | 75° |
| 2026-05-04 19:45 | 31.68227 | 124.32410 | 31127 ft | 573 kts | 75° |
| 2026-05-04 19:45 | 31.70242 | 124.41524 | 31116 ft | 570 kts | 75° |
| 2026-05-04 19:46 | 31.72244 | 124.50608 | 31131 ft | 575 kts | 75° |
| 2026-05-04 19:46 | 31.74253 | 124.59759 | 31131 ft | 571 kts | 75° |
| 2026-05-04 19:47 | 31.76233 | 124.68810 | 31112 ft | 574 kts | 76° |
| 2026-05-04 19:47 | 31.78216 | 124.77911 | 31114 ft | 572 kts | 75° |
| 2026-05-04 19:48 | 31.80185 | 124.86979 | 31111 ft | 573 kts | 75° |
| 2026-05-04 19:48 | 31.81961 | 124.96117 | 31106 ft | 572 kts | 84° |
| 2026-05-04 19:49 | 31.81966 | 125.05399 | 31116 ft | 567 kts | 101° |
| 2026-05-04 19:49 | 31.80597 | 125.14494 | 31119 ft | 566 kts | 104° |
| 2026-05-04 19:50 | 31.79132 | 125.23551 | 31125 ft | 567 kts | 104° |
| 2026-05-04 19:50 | 31.77636 | 125.32707 | 31143 ft | 566 kts | 104° |
| 2026-05-04 19:51 | 31.76137 | 125.41806 | 31142 ft | 568 kts | 105° |
| 2026-05-04 19:51 | 31.74619 | 125.50967 | 31148 ft | 568 kts | 104° |
| 2026-05-04 19:52 | 31.73129 | 125.60117 | 31150 ft | 572 kts | 101° |
| 2026-05-04 19:52 | 31.73017 | 125.69458 | 31134 ft | 575 kts | 84° |
| 2026-05-04 19:53 | 31.74733 | 125.78598 | 31137 ft | 578 kts | 75° |
| 2026-05-04 19:53 | 31.76778 | 125.87766 | 31139 ft | 576 kts | 75° |
| 2026-05-04 19:54 | 31.78790 | 125.96847 | 31142 ft | 576 kts | 75° |
| 2026-05-04 19:54 | 31.80786 | 126.05945 | 31153 ft | 575 kts | 75° |
| 2026-05-04 19:55 | 31.82782 | 126.15086 | 31153 ft | 577 kts | 75° |
| 2026-05-04 19:55 | 31.84772 | 126.24246 | 31179 ft | 576 kts | 76° |
| 2026-05-04 19:56 | 31.86742 | 126.33351 | 31171 ft | 578 kts | 76° |
| 2026-05-04 19:56 | 31.88721 | 126.42532 | 31175 ft | 577 kts | 76° |
| 2026-05-04 19:57 | 31.90691 | 126.51666 | 31160 ft | 577 kts | 75° |
| 2026-05-04 19:57 | 31.92713 | 126.60799 | 31165 ft | 578 kts | 75° |
| 2026-05-04 19:58 | 31.94733 | 126.69955 | 31152 ft | 576 kts | 76° |
| 2026-05-04 19:58 | 31.96726 | 126.79027 | 31169 ft | 579 kts | 76° |
| 2026-05-04 19:59 | 31.98737 | 126.88220 | 31156 ft | 577 kts | 76° |
| 2026-05-04 19:59 | 32.00726 | 126.97349 | 31161 ft | 576 kts | 76° |
| 2026-05-04 20:00 | 32.02702 | 127.06458 | 31163 ft | 577 kts | 76° |
| 2026-05-04 20:00 | 32.05189 | 127.15474 | 31167 ft | 577 kts | 65° |
| 2026-05-04 20:01 | 32.07945 | 127.24344 | 31152 ft | 577 kts | 78° |
| 2026-05-04 20:01 | 32.08760 | 127.33711 | 31149 ft | 573 kts | 95° |
| 2026-05-04 20:02 | 32.07484 | 127.42821 | 31162 ft | 562 kts | 112° |
| 2026-05-04 20:02 | 32.04372 | 127.51127 | 31159 ft | 551 kts | 125° |
| 2026-05-04 20:03 | 32.00660 | 127.59058 | 31164 ft | 551 kts | 126° |
| 2026-05-04 20:03 | 31.96876 | 127.66926 | 31142 ft | 551 kts | 127° |
| 2026-05-04 20:04 | 31.93054 | 127.74754 | 31133 ft | 550 kts | 127° |
| 2026-05-04 20:04 | 31.89203 | 127.82564 | 31129 ft | 551 kts | 128° |
| 2026-05-04 20:05 | 31.85337 | 127.90356 | 31135 ft | 552 kts | 128° |
| 2026-05-04 20:05 | 31.81426 | 127.98204 | 31128 ft | 553 kts | 128° |
| 2026-05-04 20:06 | 31.77509 | 128.06039 | 31138 ft | 554 kts | 128° |
| 2026-05-04 20:06 | 31.73543 | 128.13948 | 31138 ft | 555 kts | 128° |
| 2026-05-04 20:07 | 31.69591 | 128.21809 | 31128 ft | 554 kts | 128° |
| 2026-05-04 20:07 | 31.65642 | 128.29646 | 31148 ft | 556 kts | 128° |
| 2026-05-04 20:08 | 31.61685 | 128.37482 | 31139 ft | 556 kts | 128° |
| 2026-05-04 20:08 | 31.57689 | 128.45381 | 31141 ft | 555 kts | 128° |
| 2026-05-04 20:09 | 31.53686 | 128.53271 | 31142 ft | 556 kts | 129° |
| 2026-05-04 20:09 | 31.49700 | 128.61116 | 31141 ft | 556 kts | 129° |
| 2026-05-04 20:10 | 31.45710 | 128.68950 | 31124 ft | 556 kts | 129° |
| 2026-05-04 20:10 | 31.41728 | 128.76756 | 31130 ft | 557 kts | 129° |
| 2026-05-04 20:11 | 31.37747 | 128.84541 | 31133 ft | 557 kts | 129° |
| 2026-05-04 20:11 | 31.33757 | 128.92333 | 31132 ft | 555 kts | 130° |
| 2026-05-04 20:12 | 31.29732 | 129.00166 | 31130 ft | 558 kts | 130° |
| 2026-05-04 20:12 | 31.25706 | 129.07993 | 31131 ft | 559 kts | 130° |
| 2026-05-04 20:13 | 31.21707 | 129.15752 | 31132 ft | 557 kts | 129° |
| 2026-05-04 20:13 | 31.17647 | 129.23610 | 31134 ft | 559 kts | 129° |
| 2026-05-04 20:14 | 31.13601 | 129.31430 | 31132 ft | 558 kts | 130° |
| 2026-05-04 20:14 | 31.09488 | 129.39360 | 31129 ft | 557 kts | 130° |
| 2026-05-04 20:15 | 31.05449 | 129.47130 | 31132 ft | 560 kts | 130° |
| 2026-05-04 20:15 | 31.01413 | 129.54881 | 31130 ft | 558 kts | 130° |
| 2026-05-04 20:16 | 30.97378 | 129.62617 | 31130 ft | 557 kts | 130° |
| 2026-05-04 20:16 | 30.93337 | 129.70344 | 31111 ft | 559 kts | 130° |
| 2026-05-04 20:17 | 30.89287 | 129.78076 | 31112 ft | 557 kts | 130° |
| 2026-05-04 20:17 | 30.85290 | 129.85695 | 31125 ft | 553 kts | 130° |
| 2026-05-04 20:18 | 30.81247 | 129.93381 | 31133 ft | 556 kts | 131° |
| 2026-05-04 20:18 | 30.77225 | 130.01015 | 31115 ft | 553 kts | 131° |
| 2026-05-04 20:19 | 30.73195 | 130.08649 | 31123 ft | 552 kts | 130° |
| 2026-05-04 20:19 | 30.69165 | 130.16261 | 31134 ft | 555 kts | 131° |
| 2026-05-04 20:20 | 30.65144 | 130.23857 | 31127 ft | 550 kts | 130° |
| 2026-05-04 20:20 | 30.61120 | 130.31427 | 31127 ft | 553 kts | 130° |
| 2026-05-04 20:21 | 30.57070 | 130.39040 | 31132 ft | 553 kts | 131° |
| 2026-05-04 20:21 | 30.51033 | 130.50360 | 31136 ft | 552 kts | 130° |
| 2026-05-04 20:22 | 30.46981 | 130.57942 | 31138 ft | 550 kts | 130° |
| 2026-05-04 20:22 | 30.42946 | 130.65475 | 31141 ft | 547 kts | 131° |
| 2026-05-04 20:23 | 30.38946 | 130.72928 | 31119 ft | 551 kts | 131° |
| 2026-05-04 20:23 | 30.34904 | 130.80446 | 31116 ft | 547 kts | 131° |
| 2026-05-04 20:24 | 30.30817 | 130.88032 | 31115 ft | 548 kts | 131° |
| 2026-05-04 20:24 | 30.26752 | 130.95563 | 31121 ft | 548 kts | 131° |
| 2026-05-04 20:25 | 30.22613 | 131.03221 | 31121 ft | 544 kts | 131° |
| 2026-05-04 20:25 | 30.18524 | 131.10767 | 31118 ft | 546 kts | 131° |
| 2026-05-04 20:26 | 30.14379 | 131.18404 | 31118 ft | 544 kts | 131° |
| 2026-05-04 20:26 | 30.10245 | 131.26003 | 31119 ft | 545 kts | 131° |
| 2026-05-04 20:27 | 30.06120 | 131.33580 | 31119 ft | 540 kts | 131° |
| 2026-05-04 20:27 | 30.01855 | 131.40901 | 31115 ft | 532 kts | 139° |
| 2026-05-04 20:28 | 29.99360 | 131.43933 | 31119 ft | 515 kts | 148° |
| 2026-05-04 20:28 | 29.96571 | 131.46490 | 31126 ft | 507 kts | 155° |
| 2026-05-04 20:28 | 29.90637 | 131.51128 | 31118 ft | 503 kts | 156° |
| 2026-05-04 20:29 | 29.84769 | 131.55594 | 31138 ft | 505 kts | 157° |
| 2026-05-04 20:29 | 29.78903 | 131.60004 | 31129 ft | 503 kts | 157° |
| 2026-05-04 20:30 | 29.72874 | 131.64502 | 31128 ft | 507 kts | 157° |
| 2026-05-04 20:30 | 29.66955 | 131.68901 | 31114 ft | 504 kts | 157° |
| 2026-05-04 20:31 | 29.60993 | 131.73314 | 31112 ft | 508 kts | 158° |
| 2026-05-04 20:31 | 29.54960 | 131.78018 | 31113 ft | 508 kts | 154° |
| 2026-05-04 20:32 | 29.48910 | 131.83092 | 31114 ft | 513 kts | 154° |
| 2026-05-04 20:32 | 29.42979 | 131.88036 | 31111 ft | 519 kts | 154° |
| 2026-05-04 20:33 | 29.36792 | 131.93178 | 31109 ft | 513 kts | 154° |
| 2026-05-04 20:33 | 29.30753 | 131.98164 | 31117 ft | 518 kts | 154° |
| 2026-05-04 20:34 | 29.24688 | 132.03168 | 31120 ft | 521 kts | 154° |
| 2026-05-04 20:34 | 29.18577 | 132.08197 | 31117 ft | 520 kts | 154° |
| 2026-05-04 20:35 | 29.12402 | 132.13272 | 31121 ft | 516 kts | 154° |
| 2026-05-04 20:35 | 29.06334 | 132.18248 | 31119 ft | 520 kts | 153° |
| 2026-05-04 20:36 | 29.00199 | 132.23273 | 31122 ft | 518 kts | 153° |
| 2026-05-04 20:36 | 28.94128 | 132.28235 | 31114 ft | 521 kts | 153° |
| 2026-05-04 20:37 | 28.88029 | 132.33215 | 31131 ft | 522 kts | 153° |
| 2026-05-04 20:37 | 28.82079 | 132.38065 | 31133 ft | 525 kts | 153° |
| 2026-05-04 20:38 | 28.76047 | 132.42973 | 31133 ft | 526 kts | 152° |
| 2026-05-04 20:38 | 28.69945 | 132.47935 | 31134 ft | 529 kts | 152° |
| 2026-05-04 20:39 | 28.63824 | 132.52907 | 31135 ft | 523 kts | 152° |
| 2026-05-04 20:39 | 28.57649 | 132.57907 | 31127 ft | 529 kts | 152° |
| 2026-05-04 20:40 | 28.51620 | 132.62788 | 31135 ft | 528 kts | 152° |
| 2026-05-04 20:40 | 28.45456 | 132.67770 | 31112 ft | 528 kts | 153° |
| 2026-05-04 20:41 | 28.39451 | 132.72618 | 31111 ft | 526 kts | 152° |
| 2026-05-04 20:41 | 28.33293 | 132.77576 | 31112 ft | 531 kts | 152° |
| 2026-05-04 20:42 | 28.27220 | 132.82455 | 31113 ft | 529 kts | 153° |
| 2026-05-04 20:42 | 28.20861 | 132.87556 | 31114 ft | 532 kts | 153° |
| 2026-05-04 20:43 | 28.14584 | 132.92587 | 31115 ft | 533 kts | 153° |
| 2026-05-04 20:43 | 28.08262 | 132.97644 | 31105 ft | 534 kts | 153° |
| 2026-05-04 20:44 | 28.01947 | 133.02687 | 31120 ft | 537 kts | 153° |
| 2026-05-04 20:44 | 27.95448 | 133.07871 | 31109 ft | 537 kts | 152° |
| 2026-05-04 20:45 | 27.89191 | 133.12856 | 31117 ft | 537 kts | 152° |
| 2026-05-04 20:45 | 27.82980 | 133.17806 | 31127 ft | 537 kts | 152° |
| 2026-05-04 20:46 | 27.76720 | 133.22792 | 31125 ft | 535 kts | 152° |
| 2026-05-04 20:46 | 27.70256 | 133.27934 | 31128 ft | 533 kts | 152° |
| 2026-05-04 20:47 | 27.63958 | 133.32935 | 31127 ft | 535 kts | 152° |
| 2026-05-04 20:47 | 27.57506 | 133.38052 | 31129 ft | 531 kts | 152° |
| 2026-05-04 20:48 | 27.51144 | 133.43088 | 31129 ft | 534 kts | 152° |
| 2026-05-04 20:48 | 27.44743 | 133.48149 | 31124 ft | 531 kts | 151° |
| 2026-05-04 20:49 | 27.38384 | 133.53169 | 31124 ft | 531 kts | 151° |
| 2026-05-04 20:49 | 27.31962 | 133.58232 | 31129 ft | 532 kts | 151° |
| 2026-05-04 20:50 | 27.25555 | 133.63277 | 31125 ft | 530 kts | 151° |
| 2026-05-04 20:50 | 27.19355 | 133.68150 | 31108 ft | 529 kts | 151° |
| 2026-05-04 20:51 | 27.13218 | 133.72967 | 31110 ft | 530 kts | 151° |
| 2026-05-04 20:51 | 27.06884 | 133.77933 | 31111 ft | 529 kts | 151° |
| 2026-05-04 20:52 | 27.00494 | 133.82935 | 31107 ft | 528 kts | 151° |
| 2026-05-04 20:52 | 26.94317 | 133.87762 | 31111 ft | 530 kts | 151° |
| 2026-05-04 20:53 | 26.87954 | 133.92729 | 31113 ft | 530 kts | 151° |
| 2026-05-04 20:53 | 26.81833 | 133.97504 | 31109 ft | 529 kts | 151° |
| 2026-05-04 20:54 | 26.75543 | 134.02400 | 31107 ft | 529 kts | 151° |
| 2026-05-04 20:54 | 26.69168 | 134.07355 | 31102 ft | 530 kts | 151° |
| 2026-05-04 20:55 | 26.62677 | 134.12392 | 31100 ft | 530 kts | 150° |
| 2026-05-04 20:55 | 26.56295 | 134.17337 | 31097 ft | 530 kts | 150° |
| 2026-05-04 20:56 | 26.49837 | 134.22334 | 31094 ft | 529 kts | 150° |
| 2026-05-04 20:56 | 26.43511 | 134.27223 | 31095 ft | 529 kts | 150° |
| 2026-05-04 20:57 | 26.37240 | 134.32063 | 31093 ft | 529 kts | 150° |
| 2026-05-04 20:57 | 26.31004 | 134.36870 | 31090 ft | 528 kts | 150° |
| 2026-05-04 20:58 | 26.24527 | 134.41853 | 31091 ft | 530 kts | 150° |
| 2026-05-04 20:58 | 26.18070 | 134.46817 | 31092 ft | 529 kts | 150° |
| 2026-05-04 20:59 | 26.11589 | 134.51791 | 31086 ft | 528 kts | 150° |
| 2026-05-04 20:59 | 26.05218 | 134.56674 | 31084 ft | 530 kts | 150° |
| 2026-05-04 21:00 | 25.98749 | 134.61626 | 31082 ft | 530 kts | 149° |
| 2026-05-04 21:00 | 25.92375 | 134.66499 | 31068 ft | 528 kts | 150° |
| 2026-05-04 21:01 | 25.86278 | 134.71153 | 31066 ft | 528 kts | 150° |
| 2026-05-04 21:01 | 25.80046 | 134.75905 | 31069 ft | 529 kts | 150° |
| 2026-05-04 21:02 | 25.73595 | 134.80817 | 31068 ft | 527 kts | 150° |
| 2026-05-04 21:02 | 25.67062 | 134.85785 | 31078 ft | 528 kts | 150° |
| 2026-05-04 21:03 | 25.60640 | 134.90662 | 31079 ft | 528 kts | 150° |
| 2026-05-04 21:03 | 25.54055 | 134.95656 | 31076 ft | 527 kts | 150° |
| 2026-05-04 21:04 | 25.47527 | 135.00522 | 31069 ft | 526 kts | 153° |
| 2026-05-04 21:04 | 25.40659 | 135.04976 | 31067 ft | 524 kts | 154° |
| 2026-05-04 21:05 | 25.34014 | 135.09277 | 31068 ft | 525 kts | 154° |
| 2026-05-04 21:05 | 25.27141 | 135.13742 | 31063 ft | 525 kts | 154° |
| 2026-05-04 21:06 | 25.20391 | 135.18133 | 31065 ft | 525 kts | 153° |
| 2026-05-04 21:06 | 25.13762 | 135.22447 | 31064 ft | 524 kts | 153° |
| 2026-05-04 21:07 | 25.06955 | 135.26874 | 31049 ft | 524 kts | 153° |
| 2026-05-04 21:07 | 25.00301 | 135.31198 | 31036 ft | 524 kts | 153° |
| 2026-05-04 21:08 | 24.93407 | 135.35673 | 31037 ft | 524 kts | 153° |
| 2026-05-04 21:08 | 24.86951 | 135.39859 | 31039 ft | 524 kts | 153° |
| 2026-05-04 21:09 | 24.80501 | 135.44035 | 31045 ft | 524 kts | 153° |
| 2026-05-04 21:09 | 24.73806 | 135.48364 | 31053 ft | 525 kts | 153° |
| 2026-05-04 21:10 | 24.67109 | 135.52692 | 31052 ft | 524 kts | 153° |
| 2026-05-04 21:10 | 24.60412 | 135.57013 | 31052 ft | 523 kts | 153° |
| 2026-05-04 21:11 | 24.53692 | 135.61343 | 31051 ft | 523 kts | 153° |
| 2026-05-04 21:11 | 24.47103 | 135.65584 | 31047 ft | 523 kts | 153° |
| 2026-05-04 21:12 | 24.40804 | 135.69634 | 31037 ft | 523 kts | 153° |
| 2026-05-04 21:12 | 24.34286 | 135.73817 | 31036 ft | 523 kts | 153° |
| 2026-05-04 21:13 | 24.27720 | 135.78029 | 31036 ft | 522 kts | 153° |
| 2026-05-04 21:13 | 24.21206 | 135.82201 | 31033 ft | 522 kts | 153° |
| 2026-05-04 21:14 | 24.14540 | 135.86465 | 31038 ft | 522 kts | 153° |
| 2026-05-04 21:14 | 24.08034 | 135.90622 | 31030 ft | 522 kts | 153° |
| 2026-05-04 21:15 | 24.01493 | 135.94797 | 31032 ft | 522 kts | 153° |
| 2026-05-04 21:15 | 23.94978 | 135.98949 | 31033 ft | 521 kts | 153° |
| 2026-05-04 21:16 | 23.88424 | 136.03122 | 31034 ft | 521 kts | 152° |
| 2026-05-04 21:16 | 23.82156 | 136.07109 | 31036 ft | 521 kts | 152° |
| 2026-05-04 21:17 | 23.75669 | 136.11229 | 31037 ft | 520 kts | 152° |
| 2026-05-04 21:17 | 23.69090 | 136.15404 | 31036 ft | 521 kts | 152° |
| 2026-05-04 21:18 | 23.62664 | 136.19475 | 31037 ft | 522 kts | 152° |
| 2026-05-04 21:18 | 23.56079 | 136.23644 | 31037 ft | 521 kts | 152° |
| 2026-05-04 21:19 | 23.49552 | 136.27771 | 31038 ft | 521 kts | 152° |
| 2026-05-04 21:19 | 23.43023 | 136.31894 | 31041 ft | 520 kts | 152° |
| 2026-05-04 21:20 | 23.36584 | 136.35956 | 31041 ft | 520 kts | 152° |
| 2026-05-04 21:20 | 23.30001 | 136.40103 | 31038 ft | 520 kts | 152° |
| 2026-05-04 21:21 | 23.23504 | 136.44192 | 31032 ft | 520 kts | 152° |
| 2026-05-04 21:21 | 23.17080 | 136.48231 | 31026 ft | 520 kts | 152° |
| 2026-05-04 21:22 | 23.10636 | 136.52278 | 31020 ft | 520 kts | 152° |
| 2026-05-04 21:22 | 23.04099 | 136.56378 | 31013 ft | 519 kts | 152° |
| 2026-05-04 21:23 | 22.97607 | 136.60446 | 31016 ft | 519 kts | 152° |
| 2026-05-04 21:23 | 22.91081 | 136.64529 | 31016 ft | 520 kts | 152° |
| 2026-05-04 21:24 | 22.84712 | 136.68510 | 31012 ft | 520 kts | 152° |
| 2026-05-04 21:24 | 22.78331 | 136.72496 | 31013 ft | 520 kts | 152° |
| 2026-05-04 21:25 | 22.71826 | 136.76553 | 31012 ft | 519 kts | 152° |
| 2026-05-04 21:25 | 22.65282 | 136.80631 | 31014 ft | 519 kts | 152° |
| 2026-05-04 21:26 | 22.58803 | 136.84663 | 31014 ft | 520 kts | 152° |
| 2026-05-04 21:26 | 22.52325 | 136.88692 | 31012 ft | 519 kts | 152° |
| 2026-05-04 21:27 | 22.45769 | 136.92763 | 31012 ft | 519 kts | 152° |
| 2026-05-04 21:27 | 22.39197 | 136.96838 | 31016 ft | 519 kts | 152° |
| 2026-05-04 21:28 | 22.32692 | 137.00870 | 31021 ft | 518 kts | 152° |
| 2026-05-04 21:28 | 22.26067 | 137.04971 | 31018 ft | 518 kts | 151° |
| 2026-05-04 21:29 | 22.19434 | 137.09071 | 31024 ft | 519 kts | 151° |
| 2026-05-04 21:29 | 22.12894 | 137.13110 | 31018 ft | 519 kts | 151° |
| 2026-05-04 21:30 | 22.06323 | 137.17165 | 31016 ft | 518 kts | 151° |
| 2026-05-04 21:30 | 21.99783 | 137.21196 | 31018 ft | 517 kts | 151° |
| 2026-05-04 21:31 | 21.90055 | 137.27184 | 31019 ft | 518 kts | 151° |
| 2026-05-04 21:32 | 21.83765 | 137.31049 | 31021 ft | 518 kts | 151° |
| 2026-05-04 21:32 | 21.77358 | 137.34984 | 31017 ft | 518 kts | 151° |
| 2026-05-04 21:33 | 21.70853 | 137.38974 | 31018 ft | 519 kts | 151° |
| 2026-05-04 21:33 | 21.64279 | 137.43002 | 31019 ft | 518 kts | 151° |
| 2026-05-04 21:34 | 21.57741 | 137.47003 | 31020 ft | 517 kts | 151° |
| 2026-05-04 21:34 | 21.51251 | 137.50972 | 31025 ft | 518 kts | 151° |
| 2026-05-04 21:35 | 21.44634 | 137.55014 | 31025 ft | 518 kts | 151° |
| 2026-05-04 21:35 | 21.38049 | 137.59032 | 31020 ft | 518 kts | 150° |
| 2026-05-04 21:36 | 21.31452 | 137.63052 | 31025 ft | 518 kts | 150° |
| 2026-05-04 21:36 | 21.25071 | 137.66937 | 31027 ft | 517 kts | 151° |
| 2026-05-04 21:37 | 21.18732 | 137.70795 | 31029 ft | 517 kts | 151° |
| 2026-05-04 21:37 | 21.12154 | 137.74791 | 31029 ft | 517 kts | 151° |
| 2026-05-04 21:38 | 21.05664 | 137.78731 | 31026 ft | 517 kts | 151° |
| 2026-05-04 21:38 | 20.99313 | 137.82896 | 31020 ft | 517 kts | 142° |
| 2026-05-04 21:39 | 20.93805 | 137.88112 | 31019 ft | 518 kts | 138° |
| 2026-05-04 21:39 | 20.88397 | 137.93382 | 31006 ft | 518 kts | 138° |
| 2026-05-04 21:40 | 20.83050 | 137.98576 | 31008 ft | 518 kts | 138° |
| 2026-05-04 21:40 | 20.77546 | 138.03911 | 31004 ft | 518 kts | 138° |
| 2026-05-04 21:41 | 20.72048 | 138.09229 | 31005 ft | 518 kts | 138° |
| 2026-05-04 21:41 | 20.66458 | 138.14627 | 31003 ft | 517 kts | 138° |
| 2026-05-04 21:42 | 20.60886 | 138.20003 | 31007 ft | 517 kts | 138° |
| 2026-05-04 21:42 | 20.55352 | 138.25334 | 31004 ft | 516 kts | 138° |
| 2026-05-04 21:43 | 20.49838 | 138.30641 | 31008 ft | 517 kts | 138° |
| 2026-05-04 21:43 | 20.44263 | 138.36002 | 31001 ft | 517 kts | 138° |
| 2026-05-04 21:44 | 20.38694 | 138.41351 | 31005 ft | 516 kts | 138° |
| 2026-05-04 21:44 | 20.33181 | 138.46640 | 31005 ft | 516 kts | 138° |
| 2026-05-04 21:45 | 20.27511 | 138.52075 | 31005 ft | 516 kts | 138° |
| 2026-05-04 21:45 | 20.21951 | 138.57399 | 31007 ft | 516 kts | 138° |
| 2026-05-04 21:46 | 20.16392 | 138.62717 | 31012 ft | 516 kts | 138° |
| 2026-05-04 21:46 | 20.10890 | 138.67973 | 31013 ft | 516 kts | 138° |
| 2026-05-04 21:47 | 20.05438 | 138.73180 | 31012 ft | 514 kts | 138° |
| 2026-05-04 21:47 | 19.99946 | 138.78416 | 31013 ft | 515 kts | 138° |
| 2026-05-04 21:48 | 19.94354 | 138.83745 | 31012 ft | 514 kts | 138° |
| 2026-05-04 21:48 | 19.88891 | 138.88945 | 31010 ft | 515 kts | 138° |
| 2026-05-04 21:49 | 19.83540 | 138.94034 | 31009 ft | 516 kts | 138° |
| 2026-05-04 21:49 | 19.78097 | 138.99205 | 31009 ft | 514 kts | 138° |
| 2026-05-04 21:50 | 19.72597 | 139.04425 | 31007 ft | 514 kts | 138° |
| 2026-05-04 21:50 | 19.67091 | 139.09647 | 31008 ft | 514 kts | 138° |
| 2026-05-04 21:51 | 19.61657 | 139.14793 | 31005 ft | 516 kts | 138° |
| 2026-05-04 21:51 | 19.56126 | 139.20029 | 31004 ft | 516 kts | 138° |
| 2026-05-04 21:52 | 19.50660 | 139.25195 | 31006 ft | 515 kts | 138° |
| 2026-05-04 21:52 | 19.45197 | 139.30356 | 31003 ft | 515 kts | 138° |
| 2026-05-04 21:53 | 19.39640 | 139.35600 | 31000 ft | 516 kts | 138° |
| 2026-05-04 21:53 | 19.34086 | 139.40837 | 31003 ft | 516 kts | 138° |
| 2026-05-04 21:54 | 19.28549 | 139.46053 | 31000 ft | 515 kts | 138° |
| 2026-05-04 21:54 | 19.22957 | 139.51314 | 30996 ft | 515 kts | 138° |
| 2026-05-04 21:55 | 19.17405 | 139.56534 | 30998 ft | 515 kts | 138° |
| 2026-05-04 21:55 | 19.11882 | 139.61722 | 30997 ft | 515 kts | 138° |
| 2026-05-04 21:56 | 19.06471 | 139.66800 | 30991 ft | 515 kts | 138° |
| 2026-05-04 21:56 | 19.01057 | 139.71875 | 30991 ft | 514 kts | 138° |
| 2026-05-04 21:57 | 18.95562 | 139.77022 | 30993 ft | 516 kts | 138° |
| 2026-05-04 21:57 | 18.90083 | 139.82150 | 30994 ft | 515 kts | 138° |
| 2026-05-04 21:58 | 18.84726 | 139.87160 | 30990 ft | 515 kts | 138° |
| 2026-05-04 21:58 | 18.79263 | 139.92262 | 30989 ft | 517 kts | 138° |
| 2026-05-04 21:59 | 18.73772 | 139.97388 | 30990 ft | 517 kts | 138° |
| 2026-05-04 21:59 | 18.68128 | 140.02649 | 30989 ft | 516 kts | 138° |
| 2026-05-04 22:00 | 18.62609 | 140.07791 | 30990 ft | 517 kts | 138° |
| 2026-05-04 22:00 | 18.57087 | 140.12930 | 30992 ft | 517 kts | 138° |
| 2026-05-04 22:01 | 18.51562 | 140.18068 | 30992 ft | 517 kts | 138° |
| 2026-05-04 22:01 | 18.45971 | 140.23263 | 30991 ft | 519 kts | 138° |
| 2026-05-04 22:02 | 18.40343 | 140.28488 | 30992 ft | 519 kts | 138° |
| 2026-05-04 22:02 | 18.34779 | 140.33647 | 30995 ft | 518 kts | 139° |
| 2026-05-04 22:03 | 18.29151 | 140.38863 | 30994 ft | 518 kts | 139° |
| 2026-05-04 22:03 | 18.23533 | 140.44063 | 30996 ft | 518 kts | 139° |
| 2026-05-04 22:04 | 18.17989 | 140.49190 | 30996 ft | 519 kts | 139° |
| 2026-05-04 22:04 | 18.12351 | 140.54401 | 30997 ft | 519 kts | 139° |
| 2026-05-04 22:05 | 18.06723 | 140.59598 | 30995 ft | 518 kts | 139° |
| 2026-05-04 22:05 | 18.01194 | 140.64697 | 30996 ft | 518 kts | 139° |
| 2026-05-04 22:06 | 17.95748 | 140.69716 | 30991 ft | 518 kts | 139° |
| 2026-05-04 22:06 | 17.90202 | 140.74824 | 30985 ft | 518 kts | 139° |
| 2026-05-04 22:07 | 17.84727 | 140.79862 | 30987 ft | 520 kts | 139° |
| 2026-05-04 22:07 | 17.79226 | 140.84918 | 30986 ft | 520 kts | 139° |
| 2026-05-04 22:08 | 17.73623 | 140.90065 | 30979 ft | 520 kts | 139° |
| 2026-05-04 22:08 | 17.68026 | 140.95201 | 30971 ft | 520 kts | 139° |
| 2026-05-04 22:09 | 17.62469 | 141.00296 | 30970 ft | 520 kts | 139° |
| 2026-05-04 22:09 | 17.56827 | 141.05464 | 30971 ft | 521 kts | 139° |
| 2026-05-04 22:10 | 17.51192 | 141.10623 | 30971 ft | 522 kts | 139° |
| 2026-05-04 22:10 | 17.45568 | 141.15767 | 30971 ft | 523 kts | 139° |
| 2026-05-04 22:11 | 17.39860 | 141.20982 | 30975 ft | 523 kts | 139° |
| 2026-05-04 22:11 | 17.34194 | 141.26155 | 30974 ft | 523 kts | 139° |
| 2026-05-04 22:12 | 17.28476 | 141.31372 | 30977 ft | 523 kts | 140° |
| 2026-05-04 22:12 | 17.22784 | 141.36560 | 30977 ft | 524 kts | 140° |
| 2026-05-04 22:13 | 17.17056 | 141.41775 | 30977 ft | 523 kts | 140° |
| 2026-05-04 22:13 | 17.11417 | 141.46907 | 30973 ft | 525 kts | 140° |
| 2026-05-04 22:14 | 17.05753 | 141.52055 | 30977 ft | 525 kts | 140° |
| 2026-05-04 22:14 | 17.00077 | 141.57213 | 30976 ft | 525 kts | 140° |
| 2026-05-04 22:15 | 16.94394 | 141.62369 | 30975 ft | 525 kts | 140° |
| 2026-05-04 22:15 | 16.88836 | 141.67410 | 30969 ft | 525 kts | 140° |
| 2026-05-04 22:16 | 16.83284 | 141.72441 | 30976 ft | 524 kts | 140° |
| 2026-05-04 22:16 | 16.77635 | 141.77556 | 30977 ft | 524 kts | 140° |
| 2026-05-04 22:17 | 16.72012 | 141.82642 | 30977 ft | 525 kts | 141° |
| 2026-05-04 22:17 | 16.66299 | 141.87807 | 30974 ft | 525 kts | 141° |
| 2026-05-04 22:18 | 16.60587 | 141.92966 | 30977 ft | 525 kts | 141° |
| 2026-05-04 22:18 | 16.54908 | 141.98106 | 30973 ft | 526 kts | 140° |
| 2026-05-04 22:19 | 16.49213 | 142.03285 | 30966 ft | 524 kts | 140° |
| 2026-05-04 22:19 | 16.43520 | 142.08455 | 30965 ft | 525 kts | 140° |
| 2026-05-04 22:20 | 16.37817 | 142.13629 | 30968 ft | 524 kts | 140° |
| 2026-05-04 22:20 | 16.32193 | 142.18729 | 30963 ft | 526 kts | 140° |
| 2026-05-04 22:21 | 16.26447 | 142.23933 | 30962 ft | 526 kts | 140° |
| 2026-05-04 22:21 | 16.20728 | 142.29109 | 30963 ft | 526 kts | 141° |
| 2026-05-04 22:22 | 16.15101 | 142.34198 | 30972 ft | 527 kts | 141° |
| 2026-05-04 22:22 | 16.09380 | 142.39366 | 30975 ft | 526 kts | 141° |
| 2026-05-04 22:23 | 16.03684 | 142.44510 | 30973 ft | 527 kts | 141° |
| 2026-05-04 22:23 | 15.98022 | 142.49617 | 30975 ft | 526 kts | 141° |
| 2026-05-04 22:24 | 15.92322 | 142.54753 | 30973 ft | 526 kts | 141° |
| 2026-05-04 22:24 | 15.86693 | 142.59824 | 30973 ft | 526 kts | 141° |
| 2026-05-04 22:25 | 15.81120 | 142.64838 | 30975 ft | 526 kts | 141° |
| 2026-05-04 22:25 | 15.75544 | 142.69853 | 30964 ft | 526 kts | 141° |
| 2026-05-04 22:26 | 15.69840 | 142.74979 | 30960 ft | 526 kts | 141° |
| 2026-05-04 22:26 | 15.64121 | 142.80113 | 30961 ft | 525 kts | 141° |
| 2026-05-04 22:27 | 15.58515 | 142.85144 | 30960 ft | 524 kts | 141° |
| 2026-05-04 22:27 | 15.52817 | 142.90251 | 30959 ft | 525 kts | 141° |
| 2026-05-04 22:28 | 15.47174 | 142.95306 | 30960 ft | 525 kts | 141° |
| 2026-05-04 22:28 | 15.41465 | 143.00417 | 30960 ft | 525 kts | 141° |
| 2026-05-04 22:29 | 15.35748 | 143.05531 | 30957 ft | 524 kts | 141° |
| 2026-05-04 22:29 | 15.30048 | 143.10626 | 30959 ft | 524 kts | 141° |
| 2026-05-04 22:30 | 15.24402 | 143.15668 | 30958 ft | 524 kts | 141° |
| 2026-05-04 22:30 | 15.18678 | 143.20776 | 30958 ft | 524 kts | 141° |
| 2026-05-04 22:31 | 15.12977 | 143.25861 | 30957 ft | 525 kts | 141° |
| 2026-05-04 22:31 | 15.07340 | 143.30884 | 30954 ft | 523 kts | 141° |
| 2026-05-04 22:32 | 15.01611 | 143.35986 | 30955 ft | 524 kts | 141° |
| 2026-05-04 22:32 | 14.95865 | 143.41100 | 30953 ft | 522 kts | 141° |
| 2026-05-04 22:33 | 14.90146 | 143.46185 | 30952 ft | 522 kts | 141° |
| 2026-05-04 22:33 | 14.84619 | 143.51096 | 30953 ft | 523 kts | 141° |
| 2026-05-04 22:34 | 14.79014 | 143.56073 | 30954 ft | 522 kts | 141° |
| 2026-05-04 22:34 | 14.73302 | 143.61140 | 30954 ft | 522 kts | 141° |
| 2026-05-04 22:35 | 14.67699 | 143.66100 | 30950 ft | 522 kts | 141° |
| 2026-05-04 22:35 | 14.62097 | 143.71048 | 30950 ft | 522 kts | 141° |
| 2026-05-04 22:36 | 14.56371 | 143.76102 | 30949 ft | 521 kts | 141° |
| 2026-05-04 22:36 | 14.50608 | 143.81184 | 30949 ft | 521 kts | 141° |
| 2026-05-04 22:37 | 14.44842 | 143.86267 | 30948 ft | 521 kts | 141° |
| 2026-05-04 22:37 | 14.39006 | 143.91408 | 30941 ft | 519 kts | 141° |
| 2026-05-04 22:38 | 14.33286 | 143.96445 | 30937 ft | 521 kts | 141° |
| 2026-05-04 22:38 | 14.27548 | 144.01491 | 30934 ft | 521 kts | 141° |
| 2026-05-04 22:39 | 14.21753 | 144.06586 | 30934 ft | 520 kts | 140° |
| 2026-05-04 22:39 | 14.15977 | 144.11659 | 30932 ft | 518 kts | 140° |
| 2026-05-04 22:40 | 14.10309 | 144.16635 | 30931 ft | 519 kts | 140° |
| 2026-05-04 22:40 | 14.04522 | 144.21712 | 30933 ft | 519 kts | 140° |
| 2026-05-04 22:41 | 13.98683 | 144.26829 | 30931 ft | 519 kts | 140° |
| 2026-05-04 22:41 | 13.92947 | 144.31856 | 30931 ft | 519 kts | 140° |
| 2026-05-04 22:42 | 13.87260 | 144.36835 | 30930 ft | 518 kts | 140° |
| 2026-05-04 22:42 | 13.81621 | 144.41768 | 30931 ft | 518 kts | 140° |
| 2026-05-04 22:43 | 13.75948 | 144.46729 | 30935 ft | 518 kts | 140° |
| 2026-05-04 22:43 | 13.70341 | 144.51627 | 30939 ft | 518 kts | 140° |
| 2026-05-04 22:44 | 13.64755 | 144.56505 | 30941 ft | 519 kts | 140° |
| 2026-05-04 22:44 | 13.59206 | 144.61345 | 30950 ft | 519 kts | 140° |
| 2026-05-04 22:45 | 13.53682 | 144.66162 | 30964 ft | 520 kts | 140° |
| 2026-05-04 22:45 | 13.45468 | 144.73482 | 30958 ft | 518 kts | 134° |
| 2026-05-04 22:46 | 13.40730 | 144.79259 | 30960 ft | 518 kts | 129° |
| 2026-05-04 22:46 | 13.36076 | 144.85138 | 30959 ft | 517 kts | 129° |
| 2026-05-04 22:47 | 13.31351 | 144.91098 | 30952 ft | 518 kts | 129° |
| 2026-05-04 22:47 | 13.26632 | 144.97043 | 30946 ft | 517 kts | 129° |
| 2026-05-04 22:48 | 13.21953 | 145.02930 | 30941 ft | 516 kts | 129° |
| 2026-05-04 22:48 | 13.17227 | 145.08872 | 30938 ft | 515 kts | 129° |
| 2026-05-04 22:49 | 13.12500 | 145.14810 | 30934 ft | 515 kts | 129° |
| 2026-05-04 22:49 | 13.07830 | 145.20673 | 30935 ft | 515 kts | 129° |
| 2026-05-04 22:50 | 13.03142 | 145.26553 | 30933 ft | 514 kts | 129° |
| 2026-05-04 22:50 | 12.98346 | 145.32565 | 30933 ft | 514 kts | 129° |
| 2026-05-04 22:51 | 12.93599 | 145.38512 | 30933 ft | 514 kts | 129° |
| 2026-05-04 22:51 | 12.88938 | 145.44348 | 30932 ft | 515 kts | 129° |
| 2026-05-04 22:52 | 12.84276 | 145.50180 | 30927 ft | 515 kts | 129° |
| 2026-05-04 22:52 | 12.79412 | 145.56261 | 30928 ft | 514 kts | 129° |
| 2026-05-04 22:53 | 12.74645 | 145.62218 | 30925 ft | 513 kts | 129° |
| 2026-05-04 22:53 | 12.69978 | 145.68045 | 30923 ft | 513 kts | 129° |
| 2026-05-04 22:54 | 12.65278 | 145.73910 | 30922 ft | 513 kts | 129° |
| 2026-05-04 22:54 | 12.60591 | 145.79755 | 30922 ft | 512 kts | 129° |
| 2026-05-04 22:55 | 12.55855 | 145.85657 | 30919 ft | 512 kts | 129° |
| 2026-05-04 22:55 | 12.51098 | 145.91582 | 30912 ft | 511 kts | 129° |
| 2026-05-04 22:56 | 12.46309 | 145.97542 | 30910 ft | 510 kts | 129° |
| 2026-05-04 22:56 | 12.41555 | 146.03455 | 30907 ft | 510 kts | 129° |
| 2026-05-04 22:57 | 12.36719 | 146.09465 | 30908 ft | 509 kts | 129° |
| 2026-05-04 22:57 | 12.31879 | 146.15477 | 30907 ft | 507 kts | 129° |
| 2026-05-04 22:58 | 12.27182 | 146.21309 | 30908 ft | 508 kts | 129° |
| 2026-05-04 22:58 | 12.22384 | 146.27261 | 30908 ft | 507 kts | 129° |
| 2026-05-04 22:59 | 12.17610 | 146.33180 | 30909 ft | 506 kts | 129° |
| 2026-05-04 22:59 | 12.12817 | 146.39119 | 30912 ft | 507 kts | 129° |
| 2026-05-04 23:00 | 12.07989 | 146.45099 | 30906 ft | 506 kts | 129° |
| 2026-05-04 23:00 | 12.03209 | 146.51013 | 30899 ft | 505 kts | 129° |
| 2026-05-04 23:01 | 11.98394 | 146.56967 | 30896 ft | 505 kts | 129° |
| 2026-05-04 23:01 | 11.93694 | 146.62778 | 30897 ft | 505 kts | 129° |
| 2026-05-04 23:02 | 11.88994 | 146.68582 | 30900 ft | 504 kts | 129° |
| 2026-05-04 23:02 | 11.84359 | 146.74306 | 30907 ft | 505 kts | 129° |
| 2026-05-04 23:03 | 11.79687 | 146.80069 | 30907 ft | 503 kts | 129° |
| 2026-05-04 23:03 | 11.74952 | 146.85908 | 30906 ft | 504 kts | 129° |
| 2026-05-04 23:04 | 11.70182 | 146.91786 | 30907 ft | 504 kts | 129° |
| 2026-05-04 23:04 | 11.65444 | 146.97621 | 30907 ft | 503 kts | 129° |
| 2026-05-04 23:05 | 11.60737 | 147.03415 | 30904 ft | 502 kts | 129° |
| 2026-05-04 23:05 | 11.55873 | 147.09238 | 30897 ft | 502 kts | 135° |
| 2026-05-04 23:06 | 11.49779 | 147.13921 | 30902 ft | 503 kts | 147° |
| 2026-05-04 23:06 | 11.43534 | 147.17876 | 30896 ft | 503 kts | 147° |
| 2026-05-04 23:07 | 11.37042 | 147.21979 | 30895 ft | 502 kts | 147° |
| 2026-05-04 23:07 | 11.30546 | 147.26080 | 30892 ft | 502 kts | 147° |
| 2026-05-04 23:08 | 11.24157 | 147.30113 | 30891 ft | 501 kts | 147° |
| 2026-05-04 23:08 | 11.17731 | 147.34166 | 30889 ft | 502 kts | 147° |
| 2026-05-04 23:09 | 11.11335 | 147.38199 | 30887 ft | 503 kts | 147° |
| 2026-05-04 23:09 | 11.04734 | 147.42358 | 30888 ft | 502 kts | 147° |
| 2026-05-04 23:10 | 10.98419 | 147.46335 | 30887 ft | 503 kts | 147° |
| 2026-05-04 23:10 | 10.91818 | 147.50490 | 30886 ft | 502 kts | 147° |
| 2026-05-04 23:11 | 10.85519 | 147.54454 | 30884 ft | 502 kts | 147° |
| 2026-05-04 23:11 | 10.78942 | 147.58589 | 30875 ft | 502 kts | 147° |
| 2026-05-04 23:12 | 10.72571 | 147.62593 | 30873 ft | 503 kts | 147° |
| 2026-05-04 23:12 | 10.66122 | 147.66644 | 30879 ft | 502 kts | 147° |
| 2026-05-04 23:13 | 10.59623 | 147.70725 | 30879 ft | 502 kts | 147° |
| 2026-05-04 23:13 | 10.53137 | 147.74794 | 30882 ft | 504 kts | 147° |
| 2026-05-04 23:14 | 10.46577 | 147.78909 | 30886 ft | 503 kts | 147° |
| 2026-05-04 23:14 | 10.40056 | 147.83008 | 30889 ft | 503 kts | 147° |
| 2026-05-04 23:15 | 10.33400 | 147.87192 | 30881 ft | 502 kts | 147° |
| 2026-05-04 23:15 | 10.26992 | 147.91219 | 30876 ft | 503 kts | 147° |
| 2026-05-04 23:16 | 10.20321 | 147.95409 | 30872 ft | 503 kts | 147° |
| 2026-05-04 23:16 | 10.13834 | 147.99480 | 30872 ft | 503 kts | 147° |
| 2026-05-04 23:17 | 10.07151 | 148.03673 | 30870 ft | 502 kts | 147° |
| 2026-05-04 23:17 | 10.00719 | 148.07706 | 30864 ft | 503 kts | 147° |
| 2026-05-04 23:18 | 9.94136 | 148.11832 | 30866 ft | 503 kts | 147° |
| 2026-05-04 23:18 | 9.87681 | 148.15875 | 30867 ft | 504 kts | 147° |
| 2026-05-04 23:19 | 9.81287 | 148.19878 | 30866 ft | 504 kts | 147° |
| 2026-05-04 23:19 | 9.74822 | 148.23924 | 30866 ft | 504 kts | 147° |
| 2026-05-04 23:20 | 9.68370 | 148.27960 | 30866 ft | 505 kts | 147° |
| 2026-05-04 23:20 | 9.61684 | 148.32141 | 30863 ft | 504 kts | 147° |
| 2026-05-04 23:21 | 9.55421 | 148.36055 | 30865 ft | 504 kts | 147° |
| 2026-05-04 23:21 | 9.48816 | 148.40183 | 30855 ft | 504 kts | 147° |
| 2026-05-04 23:22 | 9.42349 | 148.44220 | 30853 ft | 504 kts | 147° |
| 2026-05-04 23:22 | 9.35860 | 148.48270 | 30855 ft | 506 kts | 147° |
| 2026-05-04 23:23 | 9.29567 | 148.52197 | 30860 ft | 505 kts | 146° |
| 2026-05-04 23:23 | 9.23034 | 148.56270 | 30857 ft | 505 kts | 147° |
| 2026-05-04 23:24 | 9.16632 | 148.60261 | 30855 ft | 503 kts | 147° |
| 2026-05-04 23:24 | 9.10188 | 148.64276 | 30853 ft | 503 kts | 147° |
| 2026-05-04 23:25 | 9.03809 | 148.68248 | 30853 ft | 502 kts | 147° |
| 2026-05-04 23:25 | 8.97357 | 148.72266 | 30855 ft | 504 kts | 147° |
| 2026-05-04 23:26 | 8.90888 | 148.76291 | 30858 ft | 502 kts | 146° |
| 2026-05-04 23:26 | 8.84724 | 148.80125 | 30860 ft | 505 kts | 147° |
| 2026-05-04 23:27 | 8.78265 | 148.84142 | 30845 ft | 504 kts | 147° |
| 2026-05-04 23:27 | 8.72016 | 148.88025 | 30833 ft | 502 kts | 147° |
| 2026-05-04 23:28 | 8.65493 | 148.92078 | 30828 ft | 502 kts | 146° |
| 2026-05-04 23:28 | 8.59219 | 148.95973 | 30829 ft | 503 kts | 147° |
| 2026-05-04 23:29 | 8.52604 | 149.00079 | 30830 ft | 503 kts | 147° |
| 2026-05-04 23:29 | 8.46190 | 149.04059 | 30835 ft | 503 kts | 147° |
| 2026-05-04 23:30 | 8.39688 | 149.08093 | 30845 ft | 503 kts | 147° |
| 2026-05-04 23:30 | 8.33328 | 149.12036 | 30848 ft | 505 kts | 147° |
| 2026-05-04 23:31 | 8.26803 | 149.16080 | 30848 ft | 504 kts | 147° |
| 2026-05-04 23:31 | 8.20283 | 149.20119 | 30848 ft | 505 kts | 147° |
| 2026-05-04 23:32 | 8.13800 | 149.24133 | 30847 ft | 505 kts | 147° |
| 2026-05-04 23:32 | 8.07143 | 149.28255 | 30838 ft | 506 kts | 147° |
| 2026-05-04 23:33 | 8.00654 | 149.32271 | 30827 ft | 507 kts | 147° |
| 2026-05-04 23:33 | 7.93923 | 149.36433 | 30829 ft | 506 kts | 147° |
| 2026-05-04 23:34 | 7.87542 | 149.40379 | 30827 ft | 506 kts | 147° |
| 2026-05-04 23:34 | 7.80898 | 149.44485 | 30827 ft | 506 kts | 147° |
| 2026-05-04 23:35 | 7.74424 | 149.48486 | 30828 ft | 507 kts | 147° |
| 2026-05-04 23:35 | 7.67808 | 149.52573 | 30827 ft | 506 kts | 147° |
| 2026-05-04 23:36 | 7.61441 | 149.56503 | 30834 ft | 506 kts | 147° |
| 2026-05-04 23:36 | 7.54812 | 149.60594 | 30846 ft | 506 kts | 147° |
| 2026-05-04 23:37 | 7.48244 | 149.64647 | 30847 ft | 506 kts | 147° |
| 2026-05-04 23:37 | 7.42049 | 149.68468 | 30850 ft | 507 kts | 147° |
| 2026-05-04 23:38 | 7.35486 | 149.72514 | 30848 ft | 507 kts | 147° |
| 2026-05-04 23:38 | 7.29043 | 149.76486 | 30845 ft | 507 kts | 147° |
| 2026-05-04 23:39 | 7.22441 | 149.80553 | 30838 ft | 505 kts | 147° |
| 2026-05-04 23:39 | 7.16060 | 149.84483 | 30830 ft | 506 kts | 147° |
| 2026-05-04 23:40 | 7.09461 | 149.88547 | 30829 ft | 505 kts | 147° |
| 2026-05-04 23:40 | 7.03012 | 149.92516 | 30828 ft | 506 kts | 147° |
| 2026-05-04 23:41 | 6.96470 | 149.96541 | 30829 ft | 507 kts | 147° |
| 2026-05-04 23:41 | 6.90112 | 150.00452 | 30829 ft | 506 kts | 147° |
| 2026-05-04 23:42 | 6.83747 | 150.04366 | 30827 ft | 505 kts | 147° |
| 2026-05-04 23:42 | 6.77329 | 150.08310 | 30835 ft | 506 kts | 147° |
| 2026-05-04 23:43 | 6.70860 | 150.12285 | 30846 ft | 506 kts | 147° |
| 2026-05-04 23:43 | 6.64365 | 150.16275 | 30847 ft | 507 kts | 147° |
| 2026-05-04 23:44 | 6.57905 | 150.20242 | 30846 ft | 507 kts | 147° |
| 2026-05-04 23:44 | 6.51347 | 150.24269 | 30847 ft | 506 kts | 147° |
| 2026-05-04 23:45 | 6.45052 | 150.28133 | 30846 ft | 505 kts | 147° |
| 2026-05-04 23:45 | 6.38487 | 150.32161 | 30843 ft | 506 kts | 147° |
| 2026-05-04 23:46 | 6.32090 | 150.36084 | 30842 ft | 506 kts | 147° |
| 2026-05-04 23:46 | 6.25725 | 150.39987 | 30844 ft | 506 kts | 147° |
| 2026-05-04 23:47 | 6.19365 | 150.43886 | 30844 ft | 506 kts | 147° |
| 2026-05-04 23:47 | 6.12839 | 150.47885 | 30845 ft | 506 kts | 147° |
| 2026-05-04 23:48 | 6.06407 | 150.51825 | 30843 ft | 505 kts | 147° |
| 2026-05-04 23:48 | 5.99975 | 150.55792 | 30839 ft | 505 kts | 147° |
| 2026-05-04 23:49 | 5.93506 | 150.59786 | 30844 ft | 505 kts | 147° |
| 2026-05-04 23:49 | 5.86991 | 150.63805 | 30856 ft | 505 kts | 147° |
| 2026-05-04 23:50 | 5.80783 | 150.67635 | 30863 ft | 505 kts | 147° |
| 2026-05-04 23:50 | 5.74324 | 150.71617 | 30865 ft | 505 kts | 147° |
| 2026-05-04 23:51 | 5.67769 | 150.75658 | 30857 ft | 505 kts | 147° |
| 2026-05-04 23:51 | 5.61314 | 150.79634 | 30849 ft | 505 kts | 147° |
| 2026-05-04 23:52 | 5.54867 | 150.83606 | 30848 ft | 504 kts | 147° |
| 2026-05-04 23:52 | 5.48368 | 150.87608 | 30848 ft | 504 kts | 147° |
| 2026-05-04 23:53 | 5.41806 | 150.91649 | 30848 ft | 504 kts | 147° |
| 2026-05-04 23:53 | 5.35356 | 150.95619 | 30848 ft | 504 kts | 147° |
| 2026-05-04 23:54 | 5.28742 | 150.99689 | 30848 ft | 505 kts | 147° |
| 2026-05-04 23:54 | 5.22188 | 151.03722 | 30848 ft | 505 kts | 147° |
| 2026-05-04 23:55 | 5.15578 | 151.07787 | 30848 ft | 504 kts | 147° |
| 2026-05-04 23:56 | 5.05871 | 151.13754 | 30850 ft | 505 kts | 147° |
| 2026-05-04 23:56 | 4.99378 | 151.17746 | 30854 ft | 505 kts | 146° |
| 2026-05-04 23:57 | 4.92741 | 151.21825 | 30864 ft | 505 kts | 146° |
| 2026-05-04 23:57 | 4.86446 | 151.25693 | 30863 ft | 506 kts | 146° |
| 2026-05-04 23:58 | 4.79911 | 151.29706 | 30856 ft | 506 kts | 146° |
| 2026-05-04 23:58 | 4.73337 | 151.33745 | 30855 ft | 506 kts | 146° |
| 2026-05-04 23:59 | 4.66846 | 151.37730 | 30857 ft | 507 kts | 146° |
| 2026-05-04 23:59 | 4.60373 | 151.41704 | 30856 ft | 508 kts | 146° |
| 2026-05-05 00:00 | 4.53834 | 151.45715 | 30854 ft | 510 kts | 146° |
| 2026-05-05 00:00 | 4.47175 | 151.49802 | 30852 ft | 509 kts | 146° |
| 2026-05-05 00:01 | 4.40688 | 151.53781 | 30848 ft | 509 kts | 146° |
| 2026-05-05 00:01 | 4.33960 | 151.57909 | 30846 ft | 509 kts | 146° |
| 2026-05-05 00:02 | 4.27425 | 151.61914 | 30847 ft | 509 kts | 146° |
| 2026-05-05 00:02 | 4.20884 | 151.65926 | 30861 ft | 510 kts | 146° |
| 2026-05-05 00:03 | 4.14555 | 151.69804 | 30870 ft | 510 kts | 146° |
| 2026-05-05 00:03 | 4.07899 | 151.73883 | 30869 ft | 511 kts | 146° |
| 2026-05-05 00:04 | 4.01419 | 151.77853 | 30870 ft | 511 kts | 146° |
| 2026-05-05 00:04 | 3.94951 | 151.81816 | 30870 ft | 511 kts | 146° |
| 2026-05-05 00:05 | 3.88580 | 151.85718 | 30868 ft | 512 kts | 146° |
| 2026-05-05 00:05 | 3.82121 | 151.89674 | 30867 ft | 512 kts | 146° |
| 2026-05-05 00:06 | 3.75562 | 151.93690 | 30868 ft | 512 kts | 146° |
| 2026-05-05 00:06 | 3.69156 | 151.97612 | 30867 ft | 513 kts | 146° |
| 2026-05-05 00:07 | 3.62422 | 152.01733 | 30867 ft | 513 kts | 146° |
| 2026-05-05 00:07 | 3.55695 | 152.05849 | 30867 ft | 513 kts | 146° |
| 2026-05-05 00:08 | 3.48954 | 152.09973 | 30868 ft | 514 kts | 146° |
| 2026-05-05 00:08 | 3.42503 | 152.13919 | 30866 ft | 513 kts | 146° |
| 2026-05-05 00:09 | 3.35934 | 152.17938 | 30868 ft | 513 kts | 146° |
| 2026-05-05 00:09 | 3.29385 | 152.21942 | 30865 ft | 514 kts | 146° |
| 2026-05-05 00:10 | 3.22858 | 152.25934 | 30859 ft | 515 kts | 146° |
| 2026-05-05 00:10 | 3.16307 | 152.29939 | 30858 ft | 514 kts | 145° |
| 2026-05-05 00:11 | 3.09636 | 152.34016 | 30866 ft | 513 kts | 146° |
| 2026-05-05 00:11 | 3.03029 | 152.38054 | 30868 ft | 514 kts | 146° |
| 2026-05-05 00:12 | 2.96526 | 152.42029 | 30868 ft | 514 kts | 146° |
| 2026-05-05 00:12 | 2.89843 | 152.46111 | 30867 ft | 514 kts | 146° |
| 2026-05-05 00:13 | 2.83423 | 152.50034 | 30864 ft | 514 kts | 145° |
| 2026-05-05 00:13 | 2.76916 | 152.54009 | 30865 ft | 515 kts | 146° |
| 2026-05-05 00:14 | 2.70364 | 152.58009 | 30862 ft | 514 kts | 146° |
| 2026-05-05 00:14 | 2.63749 | 152.62050 | 30863 ft | 514 kts | 146° |
| 2026-05-05 00:15 | 2.57329 | 152.65970 | 30868 ft | 513 kts | 146° |
| 2026-05-05 00:15 | 2.50890 | 152.69900 | 30869 ft | 514 kts | 146° |
| 2026-05-05 00:16 | 2.44370 | 152.73880 | 30865 ft | 515 kts | 146° |
| 2026-05-05 00:16 | 2.37708 | 152.77948 | 30855 ft | 515 kts | 146° |
| 2026-05-05 00:17 | 2.31252 | 152.81888 | 30851 ft | 515 kts | 146° |
| 2026-05-05 00:17 | 2.24669 | 152.85904 | 30856 ft | 515 kts | 146° |
| 2026-05-05 00:18 | 2.18162 | 152.89876 | 30860 ft | 515 kts | 146° |
| 2026-05-05 00:18 | 2.11661 | 152.93842 | 30868 ft | 515 kts | 145° |
| 2026-05-05 00:19 | 2.05125 | 152.97829 | 30871 ft | 515 kts | 145° |
| 2026-05-05 00:19 | 1.98624 | 153.01794 | 30871 ft | 514 kts | 146° |
| 2026-05-05 00:20 | 1.92166 | 153.05733 | 30871 ft | 515 kts | 145° |
| 2026-05-05 00:20 | 1.85880 | 153.09567 | 30866 ft | 514 kts | 145° |
| 2026-05-05 00:21 | 1.79329 | 153.13562 | 30866 ft | 515 kts | 145° |
| 2026-05-05 00:21 | 1.72872 | 153.17499 | 30866 ft | 515 kts | 145° |
| 2026-05-05 00:22 | 1.66390 | 153.21452 | 30867 ft | 515 kts | 146° |
| 2026-05-05 00:22 | 1.59880 | 153.25421 | 30865 ft | 515 kts | 146° |
| 2026-05-05 00:23 | 1.53355 | 153.29399 | 30854 ft | 516 kts | 146° |
| 2026-05-05 00:23 | 1.46835 | 153.33374 | 30846 ft | 516 kts | 146° |
| 2026-05-05 00:24 | 1.40336 | 153.37335 | 30846 ft | 515 kts | 146° |
| 2026-05-05 00:24 | 1.33785 | 153.41328 | 30848 ft | 516 kts | 146° |
| 2026-05-05 00:25 | 1.27194 | 153.45344 | 30852 ft | 516 kts | 146° |
| 2026-05-05 00:25 | 1.20761 | 153.49265 | 30856 ft | 517 kts | 146° |
| 2026-05-05 00:26 | 1.14134 | 153.53304 | 30860 ft | 517 kts | 146° |
| 2026-05-05 00:26 | 1.07488 | 153.57353 | 30860 ft | 516 kts | 146° |
| 2026-05-05 00:27 | 1.00979 | 153.61320 | 30866 ft | 517 kts | 146° |
| 2026-05-05 00:27 | 0.94475 | 153.65283 | 30868 ft | 518 kts | 146° |
| 2026-05-05 00:28 | 0.87989 | 153.69235 | 30867 ft | 517 kts | 146° |
| 2026-05-05 00:28 | 0.81449 | 153.73219 | 30868 ft | 517 kts | 146° |
| 2026-05-05 00:29 | 0.75039 | 153.77124 | 30867 ft | 518 kts | 146° |
| 2026-05-05 00:29 | 0.68597 | 153.81049 | 30868 ft | 517 kts | 146° |
| 2026-05-05 00:30 | 0.62103 | 153.85005 | 30866 ft | 517 kts | 146° |
| 2026-05-05 00:30 | 0.55654 | 153.88934 | 30858 ft | 519 kts | 146° |
| 2026-05-05 00:31 | 0.49281 | 153.92816 | 30847 ft | 518 kts | 146° |
| 2026-05-05 00:31 | 0.42985 | 153.96651 | 30849 ft | 517 kts | 146° |
| 2026-05-05 00:32 | 0.36695 | 154.00482 | 30848 ft | 518 kts | 146° |
| 2026-05-05 00:32 | 0.30342 | 154.04352 | 30847 ft | 518 kts | 146° |
| 2026-05-05 00:33 | 0.23691 | 154.08403 | 30851 ft | 517 kts | 146° |
| 2026-05-05 00:33 | 0.17044 | 154.12451 | 30858 ft | 518 kts | 146° |
| 2026-05-05 00:34 | 0.10545 | 154.16411 | 30867 ft | 517 kts | 146° |
| 2026-05-05 00:34 | 0.03871 | 154.20476 | 30869 ft | 517 kts | 146° |
| 2026-05-05 00:35 | -0.02681 | 154.24463 | 30870 ft | 517 kts | 146° |
| 2026-05-05 00:35 | -0.09346 | 154.28505 | 30870 ft | 517 kts | 147° |
| 2026-05-05 00:36 | -0.15775 | 154.32405 | 30866 ft | 516 kts | 147° |
| 2026-05-05 00:36 | -0.22363 | 154.36401 | 30866 ft | 516 kts | 146° |
| 2026-05-05 00:37 | -0.28949 | 154.40398 | 30866 ft | 515 kts | 147° |
| 2026-05-05 00:37 | -0.35337 | 154.44273 | 30866 ft | 516 kts | 146° |
| 2026-05-05 00:38 | -0.42003 | 154.48317 | 30856 ft | 516 kts | 146° |
| 2026-05-05 00:38 | -0.48503 | 154.52261 | 30846 ft | 516 kts | 147° |
| 2026-05-05 00:39 | -0.55004 | 154.56206 | 30846 ft | 515 kts | 146° |
| 2026-05-05 00:39 | -0.61407 | 154.60091 | 30846 ft | 515 kts | 146° |
| 2026-05-05 00:40 | -0.67984 | 154.64082 | 30846 ft | 515 kts | 146° |
| 2026-05-05 00:40 | -0.74427 | 154.67992 | 30850 ft | 515 kts | 146° |
| 2026-05-05 00:41 | -0.80859 | 154.71895 | 30850 ft | 516 kts | 147° |
| 2026-05-05 00:41 | -0.87430 | 154.75882 | 30854 ft | 515 kts | 147° |
| 2026-05-05 00:42 | -0.93962 | 154.79846 | 30865 ft | 515 kts | 146° |
| 2026-05-05 00:42 | -1.00338 | 154.83716 | 30871 ft | 515 kts | 147° |
| 2026-05-05 00:43 | -1.06889 | 154.87692 | 30870 ft | 516 kts | 146° |
| 2026-05-05 00:43 | -1.13273 | 154.91566 | 30867 ft | 516 kts | 146° |
| 2026-05-05 00:44 | -1.19781 | 154.95517 | 30867 ft | 517 kts | 146° |
| 2026-05-05 00:44 | -1.26250 | 154.99445 | 30860 ft | 517 kts | 147° |
| 2026-05-05 00:45 | -1.32729 | 155.03378 | 30849 ft | 516 kts | 146° |
| 2026-05-05 00:45 | -1.39288 | 155.07359 | 30847 ft | 516 kts | 146° |
| 2026-05-05 00:46 | -1.45737 | 155.11275 | 30847 ft | 516 kts | 146° |
| 2026-05-05 00:46 | -1.52390 | 155.15315 | 30847 ft | 516 kts | 146° |
| 2026-05-05 00:47 | -1.59023 | 155.19342 | 30847 ft | 516 kts | 146° |
| 2026-05-05 00:47 | -1.65613 | 155.23344 | 30847 ft | 516 kts | 146° |
| 2026-05-05 00:48 | -1.72116 | 155.27293 | 30847 ft | 515 kts | 146° |
| 2026-05-05 00:48 | -1.78635 | 155.31253 | 30848 ft | 515 kts | 146° |
| 2026-05-05 00:49 | -1.85118 | 155.35191 | 30848 ft | 516 kts | 146° |
| 2026-05-05 00:49 | -1.91691 | 155.39185 | 30847 ft | 516 kts | 146° |
| 2026-05-05 00:50 | -1.98306 | 155.43204 | 30850 ft | 516 kts | 147° |
| 2026-05-05 00:50 | -2.04949 | 155.47240 | 30857 ft | 515 kts | 147° |
| 2026-05-05 00:51 | -2.11407 | 155.51164 | 30859 ft | 515 kts | 147° |
| 2026-05-05 00:51 | -2.17955 | 155.55144 | 30861 ft | 514 kts | 147° |
| 2026-05-05 00:52 | -2.24481 | 155.59109 | 30854 ft | 514 kts | 147° |
| 2026-05-05 00:52 | -2.31010 | 155.63078 | 30847 ft | 514 kts | 147° |
| 2026-05-05 00:53 | -2.37379 | 155.66950 | 30849 ft | 514 kts | 147° |
| 2026-05-05 00:53 | -2.43818 | 155.70865 | 30848 ft | 514 kts | 147° |
| 2026-05-05 00:54 | -2.50407 | 155.74872 | 30849 ft | 514 kts | 147° |
| 2026-05-05 00:54 | -2.56852 | 155.78790 | 30849 ft | 513 kts | 147° |
| 2026-05-05 00:55 | -2.63430 | 155.82791 | 30850 ft | 513 kts | 147° |
| 2026-05-05 00:55 | -2.69961 | 155.86763 | 30849 ft | 513 kts | 147° |
| 2026-05-05 00:56 | -2.76518 | 155.90752 | 30849 ft | 513 kts | 147° |
| 2026-05-05 00:56 | -2.82944 | 155.94663 | 30849 ft | 513 kts | 147° |
| 2026-05-05 00:57 | -2.89530 | 155.98669 | 30849 ft | 512 kts | 147° |
| 2026-05-05 00:57 | -2.96030 | 156.02626 | 30849 ft | 512 kts | 147° |
| 2026-05-05 00:58 | -3.02492 | 156.06558 | 30849 ft | 512 kts | 147° |
| 2026-05-05 00:58 | -3.08998 | 156.10519 | 30848 ft | 512 kts | 147° |
| 2026-05-05 00:59 | -3.15367 | 156.14397 | 30846 ft | 512 kts | 147° |
| 2026-05-05 00:59 | -3.21827 | 156.18330 | 30845 ft | 512 kts | 147° |
| 2026-05-05 01:00 | -3.28299 | 156.22272 | 30846 ft | 511 kts | 148° |
| 2026-05-05 01:00 | -3.34804 | 156.26234 | 30847 ft | 511 kts | 148° |
| 2026-05-05 01:01 | -3.41326 | 156.30208 | 30847 ft | 511 kts | 148° |
| 2026-05-05 01:01 | -3.47745 | 156.34119 | 30847 ft | 511 kts | 148° |
| 2026-05-05 01:02 | -3.54248 | 156.38081 | 30847 ft | 511 kts | 148° |
| 2026-05-05 01:02 | -3.60816 | 156.42085 | 30847 ft | 510 kts | 148° |
| 2026-05-05 01:03 | -3.67207 | 156.45981 | 30847 ft | 511 kts | 148° |
| 2026-05-05 01:03 | -3.73711 | 156.49947 | 30847 ft | 510 kts | 148° |
| 2026-05-05 01:04 | -3.80185 | 156.53894 | 30846 ft | 510 kts | 148° |
| 2026-05-05 01:04 | -3.89875 | 156.59805 | 30837 ft | 510 kts | 148° |
| 2026-05-05 01:05 | -3.96446 | 156.63814 | 30835 ft | 510 kts | 148° |
| 2026-05-05 01:05 | -4.02851 | 156.67723 | 30835 ft | 509 kts | 148° |
| 2026-05-05 01:06 | -4.09378 | 156.71707 | 30842 ft | 509 kts | 148° |
| 2026-05-05 01:06 | -4.15609 | 156.75510 | 30848 ft | 508 kts | 148° |
| 2026-05-05 01:07 | -4.22111 | 156.79480 | 30848 ft | 509 kts | 148° |
| 2026-05-05 01:07 | -4.28554 | 156.83415 | 30848 ft | 509 kts | 148° |
| 2026-05-05 01:08 | -4.35018 | 156.87363 | 30848 ft | 509 kts | 148° |
| 2026-05-05 01:08 | -4.41500 | 156.91322 | 30848 ft | 509 kts | 148° |
| 2026-05-05 01:09 | -4.48075 | 156.95340 | 30848 ft | 508 kts | 148° |
| 2026-05-05 01:09 | -4.54569 | 156.99310 | 30848 ft | 509 kts | 148° |
| 2026-05-05 01:10 | -4.60924 | 157.03194 | 30848 ft | 508 kts | 148° |
| 2026-05-05 01:10 | -4.67391 | 157.07149 | 30847 ft | 509 kts | 148° |
| 2026-05-05 01:11 | -4.73956 | 157.11163 | 30846 ft | 509 kts | 148° |
| 2026-05-05 01:11 | -4.80290 | 157.15037 | 30837 ft | 508 kts | 148° |
| 2026-05-05 01:12 | -4.86791 | 157.19016 | 30828 ft | 509 kts | 148° |
| 2026-05-05 01:12 | -4.93346 | 157.23027 | 30827 ft | 508 kts | 148° |
| 2026-05-05 01:13 | -4.99786 | 157.26970 | 30827 ft | 508 kts | 148° |
| 2026-05-05 01:13 | -5.06247 | 157.30927 | 30831 ft | 508 kts | 148° |
| 2026-05-05 01:14 | -5.12550 | 157.34786 | 30835 ft | 509 kts | 148° |
| 2026-05-05 01:14 | -5.19066 | 157.38777 | 30844 ft | 508 kts | 148° |
| 2026-05-05 01:15 | -5.25442 | 157.42683 | 30848 ft | 509 kts | 148° |
| 2026-05-05 01:15 | -5.32000 | 157.46703 | 30848 ft | 509 kts | 148° |
| 2026-05-05 01:16 | -5.38477 | 157.50674 | 30849 ft | 508 kts | 148° |
| 2026-05-05 01:16 | -5.44988 | 157.54666 | 30848 ft | 509 kts | 148° |
| 2026-05-05 01:17 | -5.51393 | 157.58595 | 30848 ft | 508 kts | 148° |
| 2026-05-05 01:17 | -5.57911 | 157.62593 | 30844 ft | 508 kts | 148° |
| 2026-05-05 01:18 | -5.64260 | 157.66496 | 30838 ft | 508 kts | 148° |
| 2026-05-05 01:18 | -5.70540 | 157.70390 | 30831 ft | 509 kts | 148° |
| 2026-05-05 01:19 | -5.76956 | 157.74368 | 30830 ft | 509 kts | 148° |
| 2026-05-05 01:19 | -5.83466 | 157.78406 | 30827 ft | 508 kts | 148° |
| 2026-05-05 01:20 | -5.89905 | 157.82400 | 30831 ft | 508 kts | 148° |
| 2026-05-05 01:20 | -5.96198 | 157.86304 | 30827 ft | 508 kts | 148° |
| 2026-05-05 01:21 | -6.02825 | 157.90416 | 30841 ft | 508 kts | 148° |
| 2026-05-05 01:21 | -6.09175 | 157.94357 | 30847 ft | 509 kts | 148° |
| 2026-05-05 01:22 | -6.15371 | 157.98204 | 30847 ft | 509 kts | 148° |
| 2026-05-05 01:22 | -6.21689 | 158.02129 | 30849 ft | 508 kts | 148° |
| 2026-05-05 01:23 | -6.28005 | 158.06052 | 30848 ft | 507 kts | 148° |
| 2026-05-05 01:23 | -6.34237 | 158.09923 | 30848 ft | 508 kts | 148° |
| 2026-05-05 01:24 | -6.40522 | 158.13831 | 30847 ft | 509 kts | 148° |
| 2026-05-05 01:24 | -6.46801 | 158.17734 | 30846 ft | 508 kts | 148° |
| 2026-05-05 01:25 | -6.53114 | 158.21660 | 30841 ft | 508 kts | 148° |
| 2026-05-05 01:25 | -6.59343 | 158.25536 | 30838 ft | 507 kts | 148° |
| 2026-05-05 01:26 | -6.65679 | 158.29478 | 30830 ft | 507 kts | 148° |
| 2026-05-05 01:26 | -6.71961 | 158.33388 | 30827 ft | 506 kts | 148° |
| 2026-05-05 01:27 | -6.78177 | 158.37259 | 30826 ft | 506 kts | 148° |
| 2026-05-05 01:27 | -6.84424 | 158.41150 | 30827 ft | 506 kts | 148° |
| 2026-05-05 01:28 | -6.90709 | 158.45065 | 30826 ft | 507 kts | 148° |
| 2026-05-05 01:28 | -6.96886 | 158.48915 | 30827 ft | 507 kts | 148° |
| 2026-05-05 01:29 | -7.03129 | 158.52808 | 30826 ft | 507 kts | 148° |
| 2026-05-05 01:29 | -7.09469 | 158.56761 | 30826 ft | 508 kts | 148° |
| 2026-05-05 01:30 | -7.15564 | 158.60564 | 30830 ft | 507 kts | 148° |
| 2026-05-05 01:30 | -7.21759 | 158.64430 | 30839 ft | 507 kts | 148° |
| 2026-05-05 01:31 | -7.27828 | 158.68219 | 30847 ft | 508 kts | 148° |
| 2026-05-05 01:31 | -7.34053 | 158.72105 | 30848 ft | 508 kts | 148° |
| 2026-05-05 01:32 | -7.40212 | 158.75954 | 30847 ft | 509 kts | 148° |
| 2026-05-05 01:32 | -7.46433 | 158.79840 | 30847 ft | 509 kts | 148° |
| 2026-05-05 01:33 | -7.52642 | 158.83722 | 30848 ft | 509 kts | 149° |
| 2026-05-05 01:33 | -7.58907 | 158.87639 | 30849 ft | 508 kts | 149° |
| 2026-05-05 01:34 | -7.65103 | 158.91515 | 30851 ft | 508 kts | 149° |
| 2026-05-05 01:34 | -7.71376 | 158.95441 | 30847 ft | 508 kts | 149° |
| 2026-05-05 01:35 | -7.77556 | 158.99309 | 30846 ft | 509 kts | 149° |
| 2026-05-05 01:35 | -7.83775 | 159.03203 | 30852 ft | 509 kts | 149° |
| 2026-05-05 01:36 | -7.90052 | 159.07135 | 30857 ft | 508 kts | 149° |
| 2026-05-05 01:36 | -7.96298 | 159.11049 | 30858 ft | 508 kts | 149° |
| 2026-05-05 01:37 | -8.02397 | 159.14871 | 30859 ft | 507 kts | 149° |
| 2026-05-05 01:37 | -8.08638 | 159.18784 | 30852 ft | 508 kts | 149° |
| 2026-05-05 01:38 | -8.14691 | 159.22580 | 30847 ft | 507 kts | 149° |
| 2026-05-05 01:38 | -8.20899 | 159.26476 | 30837 ft | 507 kts | 149° |
| 2026-05-05 01:39 | -8.27055 | 159.30339 | 30840 ft | 506 kts | 149° |
| 2026-05-05 01:39 | -8.33258 | 159.34235 | 30851 ft | 505 kts | 149° |
| 2026-05-05 01:40 | -8.39438 | 159.38117 | 30855 ft | 505 kts | 149° |
| 2026-05-05 01:40 | -8.45611 | 159.41994 | 30854 ft | 506 kts | 149° |
| 2026-05-05 01:41 | -8.51853 | 159.45918 | 30849 ft | 505 kts | 149° |
| 2026-05-05 01:41 | -8.57989 | 159.49777 | 30848 ft | 505 kts | 149° |
| 2026-05-05 01:42 | -8.64148 | 159.53651 | 30845 ft | 504 kts | 149° |
| 2026-05-05 01:42 | -8.70329 | 159.57542 | 30838 ft | 504 kts | 149° |
| 2026-05-05 01:43 | -8.76467 | 159.61408 | 30834 ft | 504 kts | 149° |
| 2026-05-05 01:43 | -8.82607 | 159.65276 | 30836 ft | 504 kts | 149° |
| 2026-05-05 01:44 | -8.88641 | 159.69078 | 30829 ft | 504 kts | 149° |
| 2026-05-05 01:44 | -8.94757 | 159.72934 | 30826 ft | 503 kts | 149° |
| 2026-05-05 01:45 | -9.00750 | 159.76714 | 30825 ft | 503 kts | 149° |
| 2026-05-05 01:45 | -9.06744 | 159.80495 | 30823 ft | 503 kts | 149° |
| 2026-05-05 01:46 | -9.12731 | 159.84274 | 30827 ft | 504 kts | 149° |
| 2026-05-05 01:46 | -9.18693 | 159.88039 | 30828 ft | 503 kts | 149° |
| 2026-05-05 01:47 | -9.24670 | 159.91815 | 30829 ft | 503 kts | 149° |
| 2026-05-05 01:47 | -9.30624 | 159.95577 | 30840 ft | 502 kts | 149° |
| 2026-05-05 01:48 | -9.36667 | 159.99397 | 30850 ft | 502 kts | 149° |
| 2026-05-05 01:48 | -9.42609 | 160.03145 | 30852 ft | 501 kts | 151° |
| 2026-05-05 01:49 | -9.48893 | 160.06236 | 30862 ft | 502 kts | 156° |
| 2026-05-05 01:49 | -9.55303 | 160.09195 | 30873 ft | 501 kts | 156° |
| 2026-05-05 01:50 | -9.61768 | 160.12184 | 30897 ft | 502 kts | 156° |
| 2026-05-05 01:50 | -9.68223 | 160.15173 | 30917 ft | 502 kts | 156° |
| 2026-05-05 01:51 | -9.74746 | 160.18195 | 30943 ft | 503 kts | 156° |
| 2026-05-05 01:51 | -9.81289 | 160.21228 | 30926 ft | 503 kts | 156° |
| 2026-05-05 01:52 | -9.87848 | 160.24271 | 30901 ft | 502 kts | 156° |
| 2026-05-05 01:52 | -9.94432 | 160.27327 | 31376 ft | 509 kts | 156° |
| 2026-05-05 01:53 | -9.97811 | 160.28896 | 32225 ft | 503 kts | 156° |
| 2026-05-05 01:53 | -10.01130 | 160.30437 | 33151 ft | 497 kts | 156° |
| 2026-05-05 01:53 | -10.04432 | 160.31970 | 33909 ft | 495 kts | 156° |
| 2026-05-05 01:53 | -10.07641 | 160.33461 | 34486 ft | 496 kts | 156° |
| 2026-05-05 01:54 | -10.10810 | 160.34933 | 34852 ft | 498 kts | 156° |
| 2026-05-05 01:54 | -10.13984 | 160.36409 | 34847 ft | 497 kts | 156° |
| 2026-05-05 01:54 | -10.20274 | 160.39334 | 34845 ft | 495 kts | 156° |
| 2026-05-05 01:55 | -10.26561 | 160.42258 | 34839 ft | 495 kts | 156° |
| 2026-05-05 01:55 | -10.32824 | 160.45174 | 34837 ft | 495 kts | 156° |
| 2026-05-05 01:56 | -10.39247 | 160.48164 | 34834 ft | 496 kts | 156° |
| 2026-05-05 01:56 | -10.45639 | 160.51144 | 34834 ft | 496 kts | 156° |
| 2026-05-05 01:57 | -10.51977 | 160.54100 | 34834 ft | 495 kts | 156° |
| 2026-05-05 01:57 | -10.58271 | 160.57036 | 34834 ft | 495 kts | 156° |
| 2026-05-05 01:58 | -10.64684 | 160.60030 | 34831 ft | 495 kts | 156° |
| 2026-05-05 01:58 | -10.71028 | 160.62993 | 34828 ft | 495 kts | 156° |
| 2026-05-05 01:59 | -10.77375 | 160.65958 | 34826 ft | 495 kts | 156° |
| 2026-05-05 01:59 | -10.83622 | 160.68878 | 34826 ft | 495 kts | 156° |
| 2026-05-05 02:00 | -10.89910 | 160.71819 | 34826 ft | 495 kts | 156° |
| 2026-05-05 02:00 | -10.96191 | 160.74757 | 34825 ft | 495 kts | 156° |
| 2026-05-05 02:01 | -11.02597 | 160.77765 | 34828 ft | 495 kts | 156° |
| 2026-05-05 02:01 | -11.08966 | 160.80757 | 34828 ft | 495 kts | 156° |
| 2026-05-05 02:02 | -11.15280 | 160.83725 | 34831 ft | 495 kts | 156° |
| 2026-05-05 02:02 | -11.21569 | 160.86684 | 34837 ft | 496 kts | 156° |
| 2026-05-05 02:03 | -11.27840 | 160.89633 | 34842 ft | 496 kts | 156° |
| 2026-05-05 02:03 | -11.34167 | 160.92612 | 34847 ft | 496 kts | 156° |
| 2026-05-05 02:04 | -11.40666 | 160.95671 | 34847 ft | 496 kts | 156° |
| 2026-05-05 02:04 | -11.47106 | 160.98706 | 34847 ft | 496 kts | 156° |
| 2026-05-05 02:05 | -11.53524 | 161.01730 | 34847 ft | 496 kts | 156° |
| 2026-05-05 02:05 | -11.59988 | 161.04779 | 34847 ft | 495 kts | 156° |
| 2026-05-05 02:06 | -11.66411 | 161.07811 | 34847 ft | 495 kts | 156° |
| 2026-05-05 02:06 | -11.72847 | 161.10849 | 34846 ft | 495 kts | 156° |
| 2026-05-05 02:07 | -11.79329 | 161.13910 | 34843 ft | 496 kts | 156° |
| 2026-05-05 02:07 | -11.85790 | 161.16965 | 34843 ft | 496 kts | 156° |
| 2026-05-05 02:08 | -11.92204 | 161.19997 | 34847 ft | 495 kts | 156° |
| 2026-05-05 02:08 | -11.98649 | 161.23045 | 34847 ft | 496 kts | 156° |
| 2026-05-05 02:09 | -12.05124 | 161.26111 | 34848 ft | 495 kts | 156° |
| 2026-05-05 02:09 | -12.11480 | 161.29121 | 34849 ft | 495 kts | 156° |
| 2026-05-05 02:10 | -12.17744 | 161.32089 | 34848 ft | 494 kts | 156° |
| 2026-05-05 02:10 | -12.23989 | 161.35049 | 34849 ft | 495 kts | 156° |
| 2026-05-05 02:11 | -12.30266 | 161.38026 | 34844 ft | 495 kts | 156° |
| 2026-05-05 02:11 | -12.36746 | 161.41103 | 34840 ft | 495 kts | 156° |
| 2026-05-05 02:12 | -12.46523 | 161.45746 | 34838 ft | 495 kts | 156° |
| 2026-05-05 02:13 | -12.52978 | 161.48814 | 34844 ft | 494 kts | 156° |
| 2026-05-05 02:13 | -12.59460 | 161.51897 | 34847 ft | 494 kts | 156° |
| 2026-05-05 02:14 | -12.65993 | 161.55005 | 34852 ft | 494 kts | 157° |
| 2026-05-05 02:14 | -12.72487 | 161.58096 | 34852 ft | 494 kts | 156° |
| 2026-05-05 02:15 | -12.78888 | 161.61145 | 34852 ft | 493 kts | 156° |
| 2026-05-05 02:15 | -12.85417 | 161.64256 | 34847 ft | 493 kts | 156° |
| 2026-05-05 02:16 | -12.91720 | 161.67262 | 34848 ft | 494 kts | 156° |
| 2026-05-05 02:16 | -12.97932 | 161.70226 | 34846 ft | 493 kts | 156° |
| 2026-05-05 02:17 | -13.04169 | 161.73204 | 34845 ft | 493 kts | 156° |
| 2026-05-05 02:17 | -13.10529 | 161.76241 | 34848 ft | 493 kts | 156° |
| 2026-05-05 02:18 | -13.16756 | 161.79217 | 34850 ft | 492 kts | 157° |
| 2026-05-05 02:18 | -13.22993 | 161.82201 | 34849 ft | 493 kts | 157° |
| 2026-05-05 02:19 | -13.29215 | 161.85178 | 34848 ft | 493 kts | 157° |
| 2026-05-05 02:19 | -13.35679 | 161.88271 | 34848 ft | 493 kts | 157° |
| 2026-05-05 02:20 | -13.42178 | 161.91385 | 34847 ft | 493 kts | 157° |
| 2026-05-05 02:20 | -13.48558 | 161.94443 | 34847 ft | 493 kts | 157° |
| 2026-05-05 02:21 | -13.54996 | 161.97531 | 34847 ft | 493 kts | 157° |
| 2026-05-05 02:21 | -13.61400 | 162.00604 | 34847 ft | 493 kts | 157° |
| 2026-05-05 02:22 | -13.67833 | 162.03693 | 34847 ft | 493 kts | 157° |
| 2026-05-05 02:22 | -13.74336 | 162.06818 | 34847 ft | 493 kts | 157° |
| 2026-05-05 02:23 | -13.80856 | 162.09952 | 34847 ft | 492 kts | 157° |
| 2026-05-05 02:23 | -13.87400 | 162.13100 | 34845 ft | 494 kts | 157° |
| 2026-05-05 02:24 | -13.93867 | 162.16213 | 34846 ft | 495 kts | 158° |
| 2026-05-05 02:24 | -14.00462 | 162.19389 | 34848 ft | 494 kts | 158° |
| 2026-05-05 02:25 | -14.06920 | 162.22482 | 34848 ft | 492 kts | 158° |
| 2026-05-05 02:25 | -14.13312 | 162.25543 | 34863 ft | 492 kts | 158° |
| 2026-05-05 02:26 | -14.19537 | 162.28526 | 34872 ft | 493 kts | 158° |
| 2026-05-05 02:26 | -14.25741 | 162.31502 | 34872 ft | 491 kts | 158° |
| 2026-05-05 02:27 | -14.32009 | 162.34509 | 34871 ft | 492 kts | 158° |
| 2026-05-05 02:27 | -14.38483 | 162.37617 | 34865 ft | 491 kts | 158° |
| 2026-05-05 02:28 | -14.44932 | 162.40717 | 34860 ft | 492 kts | 158° |
| 2026-05-05 02:28 | -14.51453 | 162.43852 | 34859 ft | 490 kts | 158° |
| 2026-05-05 02:29 | -14.57853 | 162.46931 | 34861 ft | 491 kts | 158° |
| 2026-05-05 02:29 | -14.64305 | 162.50038 | 34865 ft | 490 kts | 158° |
| 2026-05-05 02:30 | -14.70726 | 162.53131 | 34864 ft | 492 kts | 158° |
| 2026-05-05 02:30 | -14.77218 | 162.56261 | 34867 ft | 489 kts | 158° |
| 2026-05-05 02:31 | -14.83563 | 162.59322 | 34866 ft | 490 kts | 158° |
| 2026-05-05 02:31 | -14.90074 | 162.62465 | 34867 ft | 490 kts | 158° |
| 2026-05-05 02:32 | -14.96428 | 162.65533 | 34864 ft | 489 kts | 158° |
| 2026-05-05 02:32 | -15.02597 | 162.68517 | 34851 ft | 488 kts | 158° |
| 2026-05-05 02:33 | -15.08781 | 162.71507 | 34851 ft | 488 kts | 158° |
| 2026-05-05 02:33 | -15.14938 | 162.74487 | 34852 ft | 488 kts | 158° |
| 2026-05-05 02:34 | -15.21084 | 162.77463 | 34854 ft | 486 kts | 158° |
| 2026-05-05 02:34 | -15.27237 | 162.80444 | 34851 ft | 488 kts | 158° |
| 2026-05-05 02:35 | -15.33499 | 162.83481 | 34856 ft | 487 kts | 158° |
| 2026-05-05 02:35 | -15.39769 | 162.86523 | 34860 ft | 485 kts | 158° |
| 2026-05-05 02:36 | -15.46121 | 162.89609 | 34868 ft | 486 kts | 158° |
| 2026-05-05 02:36 | -15.52393 | 162.92656 | 34876 ft | 486 kts | 158° |
| 2026-05-05 02:37 | -15.58743 | 162.95743 | 34881 ft | 484 kts | 158° |
| 2026-05-05 02:37 | -15.65101 | 162.98837 | 34883 ft | 485 kts | 158° |
| 2026-05-05 02:38 | -15.71377 | 163.01892 | 34877 ft | 484 kts | 158° |
| 2026-05-05 02:38 | -15.77750 | 163.04997 | 34869 ft | 485 kts | 158° |
| 2026-05-05 02:39 | -15.84071 | 163.08079 | 34867 ft | 484 kts | 158° |
| 2026-05-05 02:39 | -15.90350 | 163.11142 | 34869 ft | 484 kts | 158° |
| 2026-05-05 02:40 | -15.96685 | 163.14237 | 34867 ft | 483 kts | 159° |
| 2026-05-05 02:40 | -16.03011 | 163.17326 | 34868 ft | 484 kts | 159° |
| 2026-05-05 02:41 | -16.09390 | 163.20445 | 34869 ft | 483 kts | 159° |
| 2026-05-05 02:41 | -16.15479 | 163.23425 | 34877 ft | 482 kts | 159° |
| 2026-05-05 02:42 | -16.21571 | 163.26407 | 34881 ft | 483 kts | 159° |
| 2026-05-05 02:42 | -16.27699 | 163.29410 | 34877 ft | 483 kts | 159° |
| 2026-05-05 02:43 | -16.33956 | 163.32478 | 34883 ft | 483 kts | 159° |
| 2026-05-05 02:43 | -16.40228 | 163.35555 | 34882 ft | 483 kts | 159° |
| 2026-05-05 02:44 | -16.46627 | 163.38696 | 34875 ft | 483 kts | 159° |
| 2026-05-05 02:44 | -16.52999 | 163.41827 | 34871 ft | 484 kts | 159° |
| 2026-05-05 02:45 | -16.59293 | 163.44923 | 34874 ft | 483 kts | 159° |
| 2026-05-05 02:45 | -16.65646 | 163.48048 | 34871 ft | 483 kts | 159° |
| 2026-05-05 02:46 | -16.71981 | 163.51169 | 34871 ft | 483 kts | 159° |
| 2026-05-05 02:46 | -16.78317 | 163.54291 | 34872 ft | 484 kts | 159° |
| 2026-05-05 02:47 | -16.84665 | 163.57422 | 34868 ft | 483 kts | 159° |
| 2026-05-05 02:47 | -16.91065 | 163.60579 | 34868 ft | 484 kts | 159° |
| 2026-05-05 02:48 | -16.97475 | 163.63745 | 34880 ft | 485 kts | 159° |
| 2026-05-05 02:48 | -17.03686 | 163.66815 | 34872 ft | 485 kts | 159° |
| 2026-05-05 02:49 | -17.09766 | 163.69823 | 34878 ft | 483 kts | 159° |
| 2026-05-05 02:49 | -17.15854 | 163.72836 | 34893 ft | 484 kts | 159° |
| 2026-05-05 02:50 | -17.21959 | 163.75861 | 34893 ft | 483 kts | 159° |
| 2026-05-05 02:50 | -17.28049 | 163.78880 | 34893 ft | 485 kts | 159° |
| 2026-05-05 02:51 | -17.34325 | 163.81993 | 34896 ft | 484 kts | 159° |
| 2026-05-05 02:51 | -17.40575 | 163.85097 | 34890 ft | 484 kts | 159° |
| 2026-05-05 02:52 | -17.46909 | 163.88243 | 34890 ft | 483 kts | 159° |
| 2026-05-05 02:52 | -17.53161 | 163.91351 | 34888 ft | 485 kts | 159° |
| 2026-05-05 02:53 | -17.59517 | 163.94514 | 34889 ft | 483 kts | 159° |
| 2026-05-05 02:53 | -17.65762 | 163.97624 | 34888 ft | 485 kts | 159° |
| 2026-05-05 02:54 | -17.72061 | 164.00764 | 34888 ft | 485 kts | 159° |
| 2026-05-05 02:54 | -17.78364 | 164.03908 | 34887 ft | 484 kts | 159° |
| 2026-05-05 02:55 | -17.84654 | 164.07048 | 34886 ft | 484 kts | 159° |
| 2026-05-05 02:55 | -17.90921 | 164.10178 | 34885 ft | 484 kts | 159° |
| 2026-05-05 02:56 | -17.97178 | 164.13307 | 34886 ft | 483 kts | 159° |
| 2026-05-05 02:56 | -18.03441 | 164.16440 | 34887 ft | 484 kts | 159° |
| 2026-05-05 02:57 | -18.09716 | 164.19582 | 34887 ft | 485 kts | 159° |
| 2026-05-05 02:57 | -18.15835 | 164.22649 | 34897 ft | 484 kts | 159° |
| 2026-05-05 02:58 | -18.21909 | 164.25696 | 34897 ft | 484 kts | 159° |
| 2026-05-05 02:58 | -18.27983 | 164.28744 | 34900 ft | 482 kts | 159° |
| 2026-05-05 02:59 | -18.34182 | 164.31857 | 34898 ft | 483 kts | 159° |
| 2026-05-05 02:59 | -18.40422 | 164.34994 | 34903 ft | 483 kts | 159° |
| 2026-05-05 03:00 | -18.46678 | 164.38142 | 34902 ft | 483 kts | 159° |
| 2026-05-05 03:00 | -18.52977 | 164.41315 | 34905 ft | 483 kts | 159° |
| 2026-05-05 03:01 | -18.59146 | 164.44423 | 34903 ft | 483 kts | 159° |
| 2026-05-05 03:01 | -18.65506 | 164.47630 | 34904 ft | 485 kts | 160° |
| 2026-05-05 03:02 | -18.71763 | 164.50789 | 34902 ft | 484 kts | 160° |
| 2026-05-05 03:02 | -18.78031 | 164.53955 | 34913 ft | 483 kts | 160° |
| 2026-05-05 03:03 | -18.84221 | 164.57085 | 34920 ft | 483 kts | 160° |
| 2026-05-05 03:03 | -18.90481 | 164.60252 | 34920 ft | 483 kts | 160° |
| 2026-05-05 03:04 | -18.96728 | 164.63417 | 34919 ft | 483 kts | 160° |
| 2026-05-05 03:04 | -19.02901 | 164.66545 | 34908 ft | 484 kts | 160° |
| 2026-05-05 03:05 | -19.08983 | 164.69630 | 34908 ft | 483 kts | 160° |
| 2026-05-05 03:05 | -19.15026 | 164.72699 | 34920 ft | 484 kts | 160° |
| 2026-05-05 03:06 | -19.21145 | 164.75809 | 34922 ft | 483 kts | 160° |
| 2026-05-05 03:06 | -19.27186 | 164.78880 | 34920 ft | 483 kts | 160° |
| 2026-05-05 03:07 | -19.33312 | 164.81998 | 34920 ft | 482 kts | 160° |
| 2026-05-05 03:07 | -19.39454 | 164.85127 | 34921 ft | 483 kts | 160° |
| 2026-05-05 03:08 | -19.45561 | 164.88240 | 34919 ft | 484 kts | 160° |
| 2026-05-05 03:08 | -19.51710 | 164.91377 | 34921 ft | 483 kts | 160° |
| 2026-05-05 03:09 | -19.57821 | 164.94499 | 34921 ft | 482 kts | 160° |
| 2026-05-05 03:09 | -19.63968 | 164.97639 | 34921 ft | 483 kts | 160° |
| 2026-05-05 03:10 | -19.70092 | 165.00774 | 34923 ft | 482 kts | 160° |
| 2026-05-05 03:10 | -19.76208 | 165.03903 | 34923 ft | 485 kts | 160° |
| 2026-05-05 03:11 | -19.82348 | 165.07050 | 34927 ft | 485 kts | 160° |
| 2026-05-05 03:11 | -19.88462 | 165.10185 | 34926 ft | 485 kts | 160° |
| 2026-05-05 03:12 | -19.94617 | 165.13345 | 34928 ft | 484 kts | 160° |
| 2026-05-05 03:12 | -20.00804 | 165.16524 | 34930 ft | 485 kts | 160° |
| 2026-05-05 03:13 | -20.06930 | 165.19675 | 34927 ft | 482 kts | 160° |
| 2026-05-05 03:13 | -20.13017 | 165.22806 | 34936 ft | 484 kts | 160° |
| 2026-05-05 03:14 | -20.19142 | 165.25961 | 34942 ft | 484 kts | 160° |
| 2026-05-05 03:14 | -20.25209 | 165.29097 | 34943 ft | 488 kts | 160° |
| 2026-05-05 03:15 | -20.31333 | 165.32274 | 34946 ft | 487 kts | 160° |
| 2026-05-05 03:15 | -20.37413 | 165.35431 | 34941 ft | 486 kts | 160° |
| 2026-05-05 03:16 | -20.43587 | 165.38637 | 34946 ft | 487 kts | 160° |
| 2026-05-05 03:16 | -20.49701 | 165.41815 | 34946 ft | 487 kts | 160° |
| 2026-05-05 03:17 | -20.55844 | 165.45013 | 34948 ft | 485 kts | 160° |
| 2026-05-05 03:17 | -20.61951 | 165.48193 | 34946 ft | 487 kts | 160° |
| 2026-05-05 03:18 | -20.68152 | 165.51425 | 34950 ft | 488 kts | 160° |
| 2026-05-05 03:18 | -20.74234 | 165.54599 | 34951 ft | 486 kts | 160° |
| 2026-05-05 03:19 | -20.83457 | 165.59416 | 34954 ft | 489 kts | 160° |
| 2026-05-05 03:19 | -20.89590 | 165.62625 | 34955 ft | 487 kts | 161° |
| 2026-05-05 03:20 | -20.95727 | 165.65837 | 34941 ft | 487 kts | 160° |
| 2026-05-05 03:20 | -21.01868 | 165.69054 | 34942 ft | 490 kts | 160° |
| 2026-05-05 03:21 | -21.08006 | 165.72273 | 34944 ft | 488 kts | 160° |
| 2026-05-05 03:21 | -21.14146 | 165.75496 | 34947 ft | 488 kts | 160° |
| 2026-05-05 03:22 | -21.20276 | 165.78716 | 34937 ft | 490 kts | 160° |
| 2026-05-05 03:22 | -21.26400 | 165.81937 | 34931 ft | 487 kts | 160° |
| 2026-05-05 03:23 | -21.32549 | 165.85172 | 34939 ft | 490 kts | 160° |
| 2026-05-05 03:23 | -21.38656 | 165.88390 | 34953 ft | 491 kts | 160° |
| 2026-05-05 03:24 | -21.44776 | 165.91617 | 34968 ft | 488 kts | 160° |
| 2026-05-05 03:24 | -21.50921 | 165.94861 | 34987 ft | 489 kts | 160° |
| 2026-05-05 03:25 | -21.57056 | 165.98102 | 34997 ft | 491 kts | 161° |
| 2026-05-05 03:25 | -21.63141 | 166.01321 | 35009 ft | 486 kts | 161° |
| 2026-05-05 03:26 | -21.69248 | 166.04552 | 35013 ft | 490 kts | 160° |
| 2026-05-05 03:26 | -21.75412 | 166.07819 | 35020 ft | 488 kts | 160° |
| 2026-05-05 03:27 | -21.81478 | 166.11035 | 35016 ft | 489 kts | 161° |
| 2026-05-05 03:27 | -21.87612 | 166.14291 | 35005 ft | 488 kts | 161° |
| 2026-05-05 03:28 | -21.93739 | 166.17546 | 34999 ft | 489 kts | 160° |
| 2026-05-05 03:28 | -21.99912 | 166.20830 | 34996 ft | 488 kts | 161° |
| 2026-05-05 03:29 | -22.06010 | 166.24095 | 34993 ft | 489 kts | 160° |
| 2026-05-05 03:29 | -22.12082 | 166.27357 | 34996 ft | 487 kts | 161° |
| 2026-05-05 03:30 | -22.18175 | 166.30632 | 34985 ft | 488 kts | 161° |
| 2026-05-05 03:30 | -22.24270 | 166.33911 | 34972 ft | 488 kts | 161° |
| 2026-05-05 03:31 | -22.30364 | 166.37193 | 34970 ft | 490 kts | 161° |
| 2026-05-05 03:31 | -22.36491 | 166.40495 | 34968 ft | 490 kts | 161° |
| 2026-05-05 03:32 | -22.42581 | 166.43782 | 34970 ft | 488 kts | 161° |
| 2026-05-05 03:32 | -22.48722 | 166.47098 | 34976 ft | 489 kts | 161° |
| 2026-05-05 03:33 | -22.54883 | 166.50429 | 34975 ft | 488 kts | 161° |
| 2026-05-05 03:33 | -22.61032 | 166.53757 | 34976 ft | 488 kts | 161° |
| 2026-05-05 03:34 | -22.67152 | 166.57071 | 34977 ft | 488 kts | 161° |
| 2026-05-05 03:34 | -22.73232 | 166.60370 | 34979 ft | 488 kts | 161° |
| 2026-05-05 03:35 | -22.79428 | 166.63733 | 34978 ft | 486 kts | 161° |
| 2026-05-05 03:35 | -22.85528 | 166.67046 | 34963 ft | 488 kts | 161° |
| 2026-05-05 03:36 | -22.91610 | 166.70354 | 34963 ft | 488 kts | 161° |
| 2026-05-05 03:36 | -22.97709 | 166.73674 | 34964 ft | 487 kts | 161° |
| 2026-05-05 03:37 | -23.03768 | 166.76976 | 34963 ft | 488 kts | 161° |
| 2026-05-05 03:37 | -23.09954 | 166.80351 | 34964 ft | 489 kts | 161° |
| 2026-05-05 03:38 | -23.16000 | 166.83653 | 34976 ft | 487 kts | 161° |
| 2026-05-05 03:38 | -23.22042 | 166.86957 | 34977 ft | 486 kts | 161° |
| 2026-05-05 03:39 | -23.28109 | 166.90274 | 34977 ft | 488 kts | 161° |
| 2026-05-05 03:39 | -23.34154 | 166.93588 | 34983 ft | 486 kts | 161° |
| 2026-05-05 03:40 | -23.40360 | 166.96991 | 34988 ft | 485 kts | 161° |
| 2026-05-05 03:40 | -23.46521 | 167.00372 | 34993 ft | 487 kts | 161° |
| 2026-05-05 03:41 | -23.52766 | 167.03804 | 34992 ft | 485 kts | 161° |
| 2026-05-05 03:41 | -23.58846 | 167.07149 | 34994 ft | 487 kts | 161° |
| 2026-05-05 03:42 | -23.65181 | 167.10637 | 34994 ft | 487 kts | 161° |
| 2026-05-05 03:42 | -23.71430 | 167.14082 | 34993 ft | 485 kts | 161° |
| 2026-05-05 03:43 | -23.77604 | 167.17490 | 34994 ft | 486 kts | 161° |
| 2026-05-05 03:43 | -23.83771 | 167.20895 | 34997 ft | 486 kts | 161° |
| 2026-05-05 03:44 | -23.90093 | 167.24393 | 34997 ft | 485 kts | 161° |
| 2026-05-05 03:44 | -23.96281 | 167.27818 | 35001 ft | 486 kts | 161° |
| 2026-05-05 03:45 | -24.02490 | 167.31261 | 34999 ft | 483 kts | 161° |
| 2026-05-05 03:45 | -24.08753 | 167.34735 | 34999 ft | 484 kts | 161° |
| 2026-05-05 03:46 | -24.14826 | 167.38109 | 35019 ft | 485 kts | 162° |
| 2026-05-05 03:46 | -24.20821 | 167.41443 | 35015 ft | 482 kts | 161° |
| 2026-05-05 03:47 | -24.26820 | 167.44781 | 35017 ft | 483 kts | 162° |
| 2026-05-05 03:47 | -24.32866 | 167.48149 | 35021 ft | 484 kts | 162° |
| 2026-05-05 03:48 | -24.39177 | 167.51671 | 35020 ft | 482 kts | 162° |
| 2026-05-05 03:48 | -24.45427 | 167.55162 | 35022 ft | 483 kts | 162° |
| 2026-05-05 03:49 | -24.51588 | 167.58607 | 35027 ft | 481 kts | 162° |
| 2026-05-05 03:49 | -24.57792 | 167.62079 | 35027 ft | 482 kts | 162° |
| 2026-05-05 03:50 | -24.63923 | 167.65515 | 35023 ft | 480 kts | 161° |
| 2026-05-05 03:50 | -24.69879 | 167.68857 | 35018 ft | 478 kts | 161° |
| 2026-05-05 03:51 | -24.75869 | 167.72220 | 35017 ft | 479 kts | 161° |
| 2026-05-05 03:51 | -24.81828 | 167.75572 | 35021 ft | 479 kts | 162° |
| 2026-05-05 03:52 | -24.87843 | 167.78967 | 35022 ft | 477 kts | 161° |
| 2026-05-05 03:52 | -24.93856 | 167.82362 | 35021 ft | 478 kts | 162° |
| 2026-05-05 03:53 | -24.99993 | 167.85832 | 35022 ft | 477 kts | 162° |
| 2026-05-05 03:53 | -25.06071 | 167.89272 | 35025 ft | 477 kts | 161° |
| 2026-05-05 03:54 | -25.12119 | 167.92700 | 35044 ft | 479 kts | 162° |
| 2026-05-05 03:54 | -25.18047 | 167.96063 | 35048 ft | 477 kts | 161° |
| 2026-05-05 03:55 | -25.23945 | 167.99412 | 35046 ft | 476 kts | 161° |
| 2026-05-05 03:55 | -25.29885 | 168.02788 | 35040 ft | 478 kts | 161° |
| 2026-05-05 03:56 | -25.35818 | 168.06166 | 35046 ft | 479 kts | 161° |
| 2026-05-05 03:56 | -25.41911 | 168.09637 | 35046 ft | 477 kts | 161° |
| 2026-05-05 03:57 | -25.47878 | 168.13042 | 35048 ft | 477 kts | 161° |
| 2026-05-05 03:57 | -25.53851 | 168.16452 | 35050 ft | 477 kts | 161° |
| 2026-05-05 03:58 | -25.59759 | 168.19832 | 35053 ft | 472 kts | 161° |
| 2026-05-05 03:58 | -25.65745 | 168.23256 | 35051 ft | 476 kts | 161° |
| 2026-05-05 03:59 | -25.71734 | 168.26688 | 35052 ft | 475 kts | 161° |
| 2026-05-05 03:59 | -25.77723 | 168.30125 | 35058 ft | 474 kts | 161° |
| 2026-05-05 04:00 | -25.83689 | 168.33553 | 35056 ft | 473 kts | 161° |
| 2026-05-05 04:00 | -25.89776 | 168.37050 | 35058 ft | 477 kts | 161° |
| 2026-05-05 04:01 | -25.95752 | 168.40492 | 35063 ft | 475 kts | 161° |
| 2026-05-05 04:01 | -26.01740 | 168.43942 | 35059 ft | 473 kts | 161° |
| 2026-05-05 04:02 | -26.07775 | 168.47424 | 35059 ft | 475 kts | 161° |
| 2026-05-05 04:02 | -26.13693 | 168.50844 | 35073 ft | 473 kts | 161° |
| 2026-05-05 04:03 | -26.19571 | 168.54242 | 35077 ft | 478 kts | 161° |
| 2026-05-05 04:03 | -26.25435 | 168.57640 | 35077 ft | 471 kts | 162° |
| 2026-05-05 04:04 | -26.31283 | 168.61028 | 35080 ft | 475 kts | 162° |
| 2026-05-05 04:04 | -26.37244 | 168.64488 | 35083 ft | 473 kts | 162° |
| 2026-05-05 04:05 | -26.43116 | 168.67900 | 35067 ft | 472 kts | 161° |
| 2026-05-05 04:05 | -26.48942 | 168.71289 | 35073 ft | 472 kts | 161° |
| 2026-05-05 04:06 | -26.54822 | 168.74710 | 35071 ft | 477 kts | 161° |
| 2026-05-05 04:06 | -26.60646 | 168.78107 | 35069 ft | 477 kts | 161° |
| 2026-05-05 04:07 | -26.66622 | 168.81596 | 35075 ft | 472 kts | 161° |
| 2026-05-05 04:07 | -26.72663 | 168.85126 | 35073 ft | 474 kts | 161° |
| 2026-05-05 04:08 | -26.78672 | 168.88643 | 35076 ft | 472 kts | 161° |
| 2026-05-05 04:08 | -26.84779 | 168.92221 | 35082 ft | 470 kts | 161° |
| 2026-05-05 04:09 | -26.90789 | 168.95744 | 35085 ft | 474 kts | 161° |
| 2026-05-05 04:09 | -26.96815 | 168.99287 | 35089 ft | 470 kts | 161° |
| 2026-05-05 04:10 | -27.02901 | 169.02863 | 35093 ft | 473 kts | 161° |
| 2026-05-05 04:10 | -27.08967 | 169.06432 | 35092 ft | 475 kts | 161° |
| 2026-05-05 04:11 | -27.14800 | 169.09874 | 35109 ft | 471 kts | 161° |
| 2026-05-05 04:11 | -27.20621 | 169.13313 | 35110 ft | 469 kts | 161° |
| 2026-05-05 04:12 | -27.26439 | 169.16751 | 35110 ft | 472 kts | 161° |
| 2026-05-05 04:12 | -27.32261 | 169.20198 | 35117 ft | 471 kts | 161° |
| 2026-05-05 04:13 | -27.38154 | 169.23691 | 35113 ft | 469 kts | 161° |
| 2026-05-05 04:13 | -27.44159 | 169.27254 | 35116 ft | 471 kts | 161° |
| 2026-05-05 04:14 | -27.50122 | 169.30797 | 35122 ft | 471 kts | 161° |
| 2026-05-05 04:14 | -27.56122 | 169.34363 | 35121 ft | 473 kts | 162° |
| 2026-05-05 04:15 | -27.62076 | 169.37911 | 35126 ft | 474 kts | 162° |
| 2026-05-05 04:15 | -27.68073 | 169.41490 | 35123 ft | 468 kts | 161° |
| 2026-05-05 04:16 | -27.73974 | 169.45012 | 35126 ft | 468 kts | 161° |
| 2026-05-05 04:16 | -27.79905 | 169.48555 | 35127 ft | 470 kts | 161° |
| 2026-05-05 04:17 | -27.85871 | 169.52127 | 35128 ft | 470 kts | 161° |
| 2026-05-05 04:17 | -27.91862 | 169.55718 | 35127 ft | 470 kts | 161° |
| 2026-05-05 04:18 | -27.97749 | 169.59248 | 35135 ft | 472 kts | 161° |
| 2026-05-05 04:18 | -28.03771 | 169.62868 | 35136 ft | 473 kts | 162° |
| 2026-05-05 04:19 | -28.09656 | 169.66409 | 35123 ft | 471 kts | 161° |
| 2026-05-05 04:19 | -28.15437 | 169.69890 | 35138 ft | 474 kts | 161° |
| 2026-05-05 04:20 | -28.21297 | 169.73422 | 35141 ft | 476 kts | 161° |
| 2026-05-05 04:20 | -28.27155 | 169.76961 | 35145 ft | 475 kts | 161° |
| 2026-05-05 04:21 | -28.33031 | 169.80513 | 35140 ft | 478 kts | 161° |
| 2026-05-05 04:21 | -28.39021 | 169.84140 | 35143 ft | 478 kts | 161° |
| 2026-05-05 04:22 | -28.44969 | 169.87747 | 35147 ft | 474 kts | 161° |
| 2026-05-05 04:22 | -28.50991 | 169.91400 | 35148 ft | 476 kts | 161° |
| 2026-05-05 04:23 | -28.57085 | 169.95103 | 35144 ft | 480 kts | 161° |
| 2026-05-05 04:23 | -28.63123 | 169.98781 | 35149 ft | 475 kts | 161° |
| 2026-05-05 04:24 | -28.69196 | 170.02478 | 35153 ft | 478 kts | 161° |
| 2026-05-05 04:25 | -28.78287 | 170.08028 | 35154 ft | 479 kts | 161° |
| 2026-05-05 04:25 | -28.84254 | 170.11675 | 35155 ft | 480 kts | 161° |
| 2026-05-05 04:26 | -28.90295 | 170.15375 | 35152 ft | 477 kts | 161° |
| 2026-05-05 04:26 | -28.96317 | 170.19066 | 35156 ft | 476 kts | 161° |
| 2026-05-05 04:27 | -29.02283 | 170.22725 | 35156 ft | 480 kts | 161° |
| 2026-05-05 04:27 | -29.08217 | 170.26373 | 35161 ft | 479 kts | 161° |
| 2026-05-05 04:28 | -29.14126 | 170.30009 | 35175 ft | 477 kts | 161° |
| 2026-05-05 04:28 | -29.19979 | 170.33618 | 35181 ft | 477 kts | 161° |
| 2026-05-05 04:29 | -29.25865 | 170.37248 | 35180 ft | 477 kts | 161° |
| 2026-05-05 04:29 | -29.31700 | 170.40852 | 35181 ft | 478 kts | 161° |
| 2026-05-05 04:30 | -29.37625 | 170.44519 | 35188 ft | 480 kts | 161° |
| 2026-05-05 04:30 | -29.43590 | 170.48213 | 35181 ft | 479 kts | 160° |
| 2026-05-05 04:31 | -29.49507 | 170.51883 | 35186 ft | 480 kts | 160° |
| 2026-05-05 04:31 | -29.55489 | 170.55600 | 35193 ft | 480 kts | 161° |
| 2026-05-05 04:32 | -29.61438 | 170.59300 | 35193 ft | 479 kts | 160° |
| 2026-05-05 04:32 | -29.67390 | 170.63005 | 35194 ft | 482 kts | 161° |
| 2026-05-05 04:33 | -29.73294 | 170.66687 | 35177 ft | 482 kts | 160° |
| 2026-05-05 04:33 | -29.79176 | 170.70363 | 35180 ft | 479 kts | 160° |
| 2026-05-05 04:34 | -29.85077 | 170.74051 | 35183 ft | 482 kts | 160° |
| 2026-05-05 04:34 | -29.90951 | 170.77731 | 35182 ft | 479 kts | 160° |
| 2026-05-05 04:35 | -29.96948 | 170.81490 | 35186 ft | 483 kts | 160° |
| 2026-05-05 04:35 | -30.02992 | 170.85288 | 35188 ft | 482 kts | 160° |
| 2026-05-05 04:36 | -30.09092 | 170.89123 | 35197 ft | 483 kts | 160° |
| 2026-05-05 04:36 | -30.14992 | 170.92842 | 35206 ft | 480 kts | 160° |
| 2026-05-05 04:37 | -30.20903 | 170.96567 | 35211 ft | 484 kts | 159° |
| 2026-05-05 04:37 | -30.26785 | 171.00285 | 35215 ft | 478 kts | 160° |
| 2026-05-05 04:38 | -30.32639 | 171.03984 | 35216 ft | 482 kts | 159° |
| 2026-05-05 04:38 | -30.38654 | 171.07794 | 35220 ft | 481 kts | 159° |
| 2026-05-05 04:39 | -30.44780 | 171.11679 | 35223 ft | 483 kts | 159° |
| 2026-05-05 04:39 | -30.50857 | 171.15540 | 35227 ft | 483 kts | 159° |
| 2026-05-05 04:40 | -30.56888 | 171.19376 | 35226 ft | 483 kts | 159° |
| 2026-05-05 04:40 | -30.62964 | 171.23247 | 35228 ft | 481 kts | 159° |
| 2026-05-05 04:41 | -30.69109 | 171.27165 | 35226 ft | 480 kts | 159° |
| 2026-05-05 04:41 | -30.75151 | 171.31024 | 35225 ft | 482 kts | 159° |
| 2026-05-05 04:42 | -30.81173 | 171.34877 | 35238 ft | 484 kts | 159° |
| 2026-05-05 04:42 | -30.87240 | 171.38765 | 35241 ft | 482 kts | 158° |
| 2026-05-05 04:43 | -30.93307 | 171.42658 | 35244 ft | 482 kts | 159° |
| 2026-05-05 04:43 | -30.99327 | 171.46524 | 35237 ft | 482 kts | 158° |
| 2026-05-05 04:44 | -31.05371 | 171.50415 | 35244 ft | 482 kts | 158° |
| 2026-05-05 04:44 | -31.11389 | 171.54291 | 35253 ft | 482 kts | 158° |
| 2026-05-05 04:45 | -31.17257 | 171.58078 | 35260 ft | 483 kts | 158° |
| 2026-05-05 04:45 | -31.23149 | 171.61887 | 35262 ft | 484 kts | 158° |
| 2026-05-05 04:46 | -31.29036 | 171.65697 | 35258 ft | 483 kts | 157° |
| 2026-05-05 04:46 | -31.34935 | 171.69521 | 35246 ft | 482 kts | 158° |
| 2026-05-05 04:47 | -31.40828 | 171.73344 | 35256 ft | 484 kts | 157° |
| 2026-05-05 04:47 | -31.46702 | 171.77162 | 35256 ft | 485 kts | 157° |
| 2026-05-05 04:48 | -31.52611 | 171.81009 | 35259 ft | 484 kts | 157° |
| 2026-05-05 04:48 | -31.58674 | 171.84961 | 35262 ft | 486 kts | 157° |
| 2026-05-05 04:49 | -31.64642 | 171.88858 | 35264 ft | 485 kts | 157° |
| 2026-05-05 04:49 | -31.70633 | 171.92775 | 35267 ft | 484 kts | 157° |
| 2026-05-05 04:49 | -31.73728 | 171.94801 | 35117 ft | 485 kts | 157° |
| 2026-05-05 04:50 | -31.76733 | 171.96768 | 35257 ft | 488 kts | 157° |
| 2026-05-05 04:50 | -31.82850 | 172.00781 | 35274 ft | 486 kts | 157° |
| 2026-05-05 04:51 | -31.88921 | 172.04768 | 35280 ft | 489 kts | 156° |
| 2026-05-05 04:51 | -31.95003 | 172.08769 | 35284 ft | 489 kts | 156° |
| 2026-05-05 04:52 | -32.01234 | 172.12875 | 35271 ft | 489 kts | 156° |
| 2026-05-05 04:52 | -32.07469 | 172.16989 | 35273 ft | 490 kts | 156° |
| 2026-05-05 04:53 | -32.13482 | 172.20964 | 35278 ft | 490 kts | 156° |
| 2026-05-05 04:53 | -32.19466 | 172.24924 | 35282 ft | 491 kts | 156° |
| 2026-05-05 04:54 | -32.25404 | 172.28860 | 35291 ft | 491 kts | 156° |
| 2026-05-05 04:54 | -32.31334 | 172.32797 | 35291 ft | 492 kts | 155° |
| 2026-05-05 04:55 | -32.37486 | 172.36888 | 35297 ft | 493 kts | 155° |
| 2026-05-05 04:55 | -32.43732 | 172.41049 | 35300 ft | 494 kts | 155° |
| 2026-05-05 04:56 | -32.50015 | 172.45241 | 35311 ft | 493 kts | 155° |
| 2026-05-05 04:56 | -32.56203 | 172.49374 | 35302 ft | 494 kts | 155° |
| 2026-05-05 04:57 | -32.62394 | 172.53519 | 35303 ft | 495 kts | 155° |
| 2026-05-05 04:57 | -32.68697 | 172.57742 | 35313 ft | 496 kts | 155° |
| 2026-05-05 04:58 | -32.74983 | 172.61963 | 35316 ft | 495 kts | 155° |
| 2026-05-05 04:58 | -32.81141 | 172.66104 | 35318 ft | 496 kts | 154° |
| 2026-05-05 04:59 | -32.87115 | 172.70128 | 35318 ft | 495 kts | 154° |
| 2026-05-05 04:59 | -32.93122 | 172.74181 | 35319 ft | 496 kts | 154° |
| 2026-05-05 05:00 | -32.99117 | 172.78232 | 35316 ft | 497 kts | 154° |
| 2026-05-05 05:00 | -33.05171 | 172.82329 | 35316 ft | 498 kts | 154° |
| 2026-05-05 05:01 | -33.11371 | 172.86531 | 35325 ft | 498 kts | 153° |
| 2026-05-05 05:01 | -33.17383 | 172.90613 | 35321 ft | 498 kts | 153° |
| 2026-05-05 05:02 | -33.23401 | 172.94707 | 35322 ft | 497 kts | 153° |
| 2026-05-05 05:02 | -33.29441 | 172.98820 | 35324 ft | 497 kts | 153° |
| 2026-05-05 05:03 | -33.35459 | 173.02925 | 35321 ft | 497 kts | 153° |
| 2026-05-05 05:03 | -33.41493 | 173.07048 | 35324 ft | 497 kts | 153° |
| 2026-05-05 05:04 | -33.47593 | 173.11223 | 35332 ft | 498 kts | 153° |
| 2026-05-05 05:04 | -33.53710 | 173.15418 | 35332 ft | 498 kts | 153° |
| 2026-05-05 05:05 | -33.59896 | 173.19665 | 35335 ft | 498 kts | 153° |
| 2026-05-05 05:05 | -33.66011 | 173.23871 | 35338 ft | 498 kts | 153° |
| 2026-05-05 05:06 | -33.72077 | 173.28050 | 35337 ft | 498 kts | 153° |
| 2026-05-05 05:06 | -33.78171 | 173.32256 | 35340 ft | 498 kts | 153° |
| 2026-05-05 05:07 | -33.84301 | 173.36479 | 35332 ft | 498 kts | 155° |
| 2026-05-05 05:07 | -33.90768 | 173.39300 | 35338 ft | 491 kts | 172° |
| 2026-05-05 05:08 | -33.97525 | 173.40247 | 35341 ft | 489 kts | 177° |
| 2026-05-05 05:08 | -34.04318 | 173.41011 | 35343 ft | 489 kts | 177° |
| 2026-05-05 05:09 | -34.11121 | 173.41798 | 35344 ft | 489 kts | 177° |
| 2026-05-05 05:09 | -34.17899 | 173.42595 | 35350 ft | 490 kts | 177° |
| 2026-05-05 05:10 | -34.24719 | 173.43402 | 35352 ft | 490 kts | 177° |
| 2026-05-05 05:10 | -34.31504 | 173.44211 | 35353 ft | 490 kts | 177° |
| 2026-05-05 05:11 | -34.38274 | 173.45021 | 35356 ft | 490 kts | 177° |
| 2026-05-05 05:11 | -34.45105 | 173.45839 | 35355 ft | 490 kts | 177° |
| 2026-05-05 05:12 | -34.51897 | 173.46655 | 35354 ft | 490 kts | 177° |
| 2026-05-05 05:12 | -34.58687 | 173.47473 | 35344 ft | 491 kts | 177° |
| 2026-05-05 05:12 | -34.62112 | 173.47887 | 35080 ft | 494 kts | 177° |
| 2026-05-05 05:13 | -34.65533 | 173.48299 | 34752 ft | 493 kts | 177° |
| 2026-05-05 05:13 | -34.68959 | 173.48714 | 34426 ft | 492 kts | 177° |
| 2026-05-05 05:13 | -34.72371 | 173.49126 | 34096 ft | 493 kts | 177° |
| 2026-05-05 05:13 | -34.75781 | 173.49538 | 33721 ft | 493 kts | 176° |
| 2026-05-05 05:14 | -34.79185 | 173.49950 | 33331 ft | 495 kts | 176° |
| 2026-05-05 05:14 | -34.82616 | 173.50366 | 32945 ft | 497 kts | 176° |
| 2026-05-05 05:14 | -34.86061 | 173.50784 | 32557 ft | 494 kts | 176° |
| 2026-05-05 05:14 | -34.89468 | 173.51198 | 32172 ft | 490 kts | 176° |
| 2026-05-05 05:15 | -34.92839 | 173.51608 | 31789 ft | 487 kts | 176° |
| 2026-05-05 05:15 | -34.96211 | 173.52019 | 31404 ft | 484 kts | 177° |
| 2026-05-05 05:15 | -34.99536 | 173.52423 | 31023 ft | 477 kts | 177° |
| 2026-05-05 05:15 | -35.02812 | 173.52823 | 30585 ft | 469 kts | 177° |
| 2026-05-05 05:16 | -35.06080 | 173.53223 | 30073 ft | 463 kts | 177° |
| 2026-05-05 05:16 | -35.09266 | 173.53612 | 29575 ft | 458 kts | 177° |
| 2026-05-05 05:16 | -35.12397 | 173.53993 | 29085 ft | 453 kts | 176° |
| 2026-05-05 05:16 | -35.15519 | 173.54375 | 28591 ft | 448 kts | 176° |
| 2026-05-05 05:17 | -35.18600 | 173.54752 | 28098 ft | 443 kts | 176° |
| 2026-05-05 05:17 | -35.21681 | 173.55129 | 27600 ft | 439 kts | 176° |
| 2026-05-05 05:17 | -35.24710 | 173.55499 | 27107 ft | 435 kts | 176° |
| 2026-05-05 05:17 | -35.27718 | 173.55867 | 26609 ft | 431 kts | 176° |
| 2026-05-05 05:18 | -35.30672 | 173.56230 | 26118 ft | 427 kts | 176° |
| 2026-05-05 05:18 | -35.33640 | 173.56593 | 25621 ft | 423 kts | 176° |
| 2026-05-05 05:18 | -35.36550 | 173.56952 | 25129 ft | 419 kts | 176° |
| 2026-05-05 05:18 | -35.39463 | 173.57309 | 24632 ft | 416 kts | 176° |
| 2026-05-05 05:19 | -35.42356 | 173.57665 | 24135 ft | 412 kts | 176° |
| 2026-05-05 05:19 | -35.45235 | 173.58019 | 23631 ft | 409 kts | 176° |
| 2026-05-05 05:19 | -35.48072 | 173.58368 | 23140 ft | 406 kts | 175° |
| 2026-05-05 05:19 | -35.50924 | 173.58720 | 22641 ft | 404 kts | 175° |
| 2026-05-05 05:20 | -35.53685 | 173.59061 | 22156 ft | 402 kts | 175° |
| 2026-05-05 05:20 | -35.56516 | 173.59410 | 21656 ft | 399 kts | 175° |
| 2026-05-05 05:20 | -35.59318 | 173.59755 | 21156 ft | 397 kts | 175° |
| 2026-05-05 05:20 | -35.62077 | 173.60097 | 20663 ft | 395 kts | 175° |
| 2026-05-05 05:21 | -35.64837 | 173.60439 | 20164 ft | 393 kts | 175° |
| 2026-05-05 05:21 | -35.67579 | 173.60777 | 19669 ft | 391 kts | 175° |
| 2026-05-05 05:21 | -35.70324 | 173.61118 | 19172 ft | 389 kts | 175° |
| 2026-05-05 05:21 | -35.73048 | 173.61455 | 18677 ft | 387 kts | 175° |
| 2026-05-05 05:22 | -35.75731 | 173.61787 | 18187 ft | 385 kts | 175° |
| 2026-05-05 05:22 | -35.78425 | 173.62122 | 17680 ft | 383 kts | 174° |
| 2026-05-05 05:22 | -35.81073 | 173.62451 | 17177 ft | 381 kts | 174° |
| 2026-05-05 05:22 | -35.83794 | 173.62790 | 16662 ft | 379 kts | 174° |
| 2026-05-05 05:23 | -35.86434 | 173.63118 | 16159 ft | 377 kts | 174° |
| 2026-05-05 05:23 | -35.89126 | 173.63452 | 15650 ft | 375 kts | 174° |
| 2026-05-05 05:23 | -35.91777 | 173.63783 | 15134 ft | 373 kts | 174° |
| 2026-05-05 05:23 | -35.94444 | 173.64114 | 14619 ft | 371 kts | 173° |
| 2026-05-05 05:24 | -35.97059 | 173.64441 | 14119 ft | 369 kts | 173° |
| 2026-05-05 05:24 | -35.99719 | 173.64774 | 13601 ft | 367 kts | 173° |
| 2026-05-05 05:24 | -36.02324 | 173.65099 | 13104 ft | 365 kts | 172° |
| 2026-05-05 05:24 | -36.04942 | 173.65425 | 12603 ft | 363 kts | 172° |
| 2026-05-05 05:25 | -36.07552 | 173.65752 | 12235 ft | 356 kts | 173° |
| 2026-05-05 05:25 | -36.10140 | 173.66075 | 12082 ft | 343 kts | 173° |
| 2026-05-05 05:25 | -36.12459 | 173.66365 | 11950 ft | 331 kts | 173° |
| 2026-05-05 05:25 | -36.14791 | 173.66658 | 11827 ft | 323 kts | 173° |
| 2026-05-05 05:26 | -36.17091 | 173.66946 | 11705 ft | 322 kts | 173° |
| 2026-05-05 05:26 | -36.19375 | 173.67233 | 11577 ft | 321 kts | 173° |
| 2026-05-05 05:26 | -36.21648 | 173.67519 | 11448 ft | 320 kts | 173° |
| 2026-05-05 05:26 | -36.23929 | 173.67806 | 11320 ft | 319 kts | 173° |
| 2026-05-05 05:27 | -36.26221 | 173.68094 | 11188 ft | 319 kts | 173° |
| 2026-05-05 05:27 | -36.28527 | 173.68384 | 11057 ft | 319 kts | 173° |
| 2026-05-05 05:27 | -36.33027 | 173.68950 | 10813 ft | 318 kts | 173° |
| 2026-05-05 05:28 | -36.35265 | 173.69235 | 10764 ft | 316 kts | 171° |
| 2026-05-05 05:28 | -36.37517 | 173.69820 | 10758 ft | 315 kts | 161° |
| 2026-05-05 05:28 | -36.39636 | 173.70868 | 10762 ft | 314 kts | 151° |
| 2026-05-05 05:28 | -36.41515 | 173.72292 | 10762 ft | 306 kts | 141° |
| 2026-05-05 05:29 | -36.43140 | 173.74019 | 10671 ft | 295 kts | 133° |
| 2026-05-05 05:29 | -36.44653 | 173.75839 | 10431 ft | 290 kts | 133° |
| 2026-05-05 05:29 | -36.46116 | 173.77609 | 10180 ft | 285 kts | 133° |
| 2026-05-05 05:29 | -36.47530 | 173.79326 | 9908 ft | 282 kts | 133° |
| 2026-05-05 05:30 | -36.48962 | 173.81065 | 9616 ft | 280 kts | 133° |
| 2026-05-05 05:30 | -36.50404 | 173.82820 | 9352 ft | 276 kts | 133° |
| 2026-05-05 05:30 | -36.51810 | 173.84531 | 9104 ft | 273 kts | 133° |
| 2026-05-05 05:30 | -36.53170 | 173.86188 | 8861 ft | 273 kts | 133° |
| 2026-05-05 05:31 | -36.54543 | 173.87862 | 8610 ft | 272 kts | 133° |
| 2026-05-05 05:31 | -36.55909 | 173.89526 | 8360 ft | 271 kts | 133° |
| 2026-05-05 05:31 | -36.57263 | 173.91177 | 8117 ft | 269 kts | 133° |
| 2026-05-05 05:31 | -36.58612 | 173.92822 | 7872 ft | 268 kts | 133° |
| 2026-05-05 05:32 | -36.59948 | 173.94455 | 7627 ft | 267 kts | 133° |
| 2026-05-05 05:32 | -36.61292 | 173.96095 | 7379 ft | 266 kts | 132° |
| 2026-05-05 05:32 | -36.62646 | 173.97751 | 7131 ft | 265 kts | 132° |
| 2026-05-05 05:32 | -36.63977 | 173.99379 | 6879 ft | 264 kts | 132° |
| 2026-05-05 05:33 | -36.65291 | 174.00987 | 6629 ft | 263 kts | 132° |
| 2026-05-05 05:33 | -36.66614 | 174.02606 | 6379 ft | 262 kts | 132° |
| 2026-05-05 05:33 | -36.67927 | 174.04215 | 6135 ft | 261 kts | 132° |
| 2026-05-05 05:33 | -36.69226 | 174.05806 | 5887 ft | 259 kts | 132° |
| 2026-05-05 05:34 | -36.70532 | 174.07407 | 5633 ft | 258 kts | 132° |
| 2026-05-05 05:34 | -36.71817 | 174.08983 | 5384 ft | 256 kts | 132° |
| 2026-05-05 05:34 | -36.73104 | 174.10562 | 5134 ft | 255 kts | 132° |
| 2026-05-05 05:34 | -36.74364 | 174.12109 | 4886 ft | 254 kts | 132° |
| 2026-05-05 05:35 | -36.75642 | 174.13680 | 4634 ft | 254 kts | 132° |
| 2026-05-05 05:35 | -36.76891 | 174.15214 | 4386 ft | 253 kts | 131° |
| 2026-05-05 05:35 | -36.78144 | 174.16756 | 4142 ft | 252 kts | 131° |
| 2026-05-05 05:35 | -36.79394 | 174.18292 | 3896 ft | 251 kts | 131° |
| 2026-05-05 05:36 | -36.80626 | 174.19809 | 3650 ft | 249 kts | 131° |
| 2026-05-05 05:36 | -36.81867 | 174.21336 | 3401 ft | 248 kts | 131° |
| 2026-05-05 05:36 | -36.83099 | 174.22855 | 3153 ft | 247 kts | 131° |
| 2026-05-05 05:36 | -36.84312 | 174.24348 | 2979 ft | 243 kts | 131° |
| 2026-05-05 05:37 | -36.85516 | 174.25835 | 2963 ft | 245 kts | 131° |
| 2026-05-05 05:37 | -36.86733 | 174.27336 | 2961 ft | 245 kts | 131° |
| 2026-05-05 05:37 | -36.87944 | 174.28832 | 2962 ft | 245 kts | 131° |
| 2026-05-05 05:37 | -36.89165 | 174.30339 | 2963 ft | 245 kts | 131° |
| 2026-05-05 05:38 | -36.90372 | 174.31831 | 2963 ft | 245 kts | 131° |
| 2026-05-05 05:38 | -36.91599 | 174.33348 | 2964 ft | 245 kts | 131° |
| 2026-05-05 05:38 | -36.92818 | 174.34856 | 2965 ft | 245 kts | 131° |
| 2026-05-05 05:38 | -36.94028 | 174.36353 | 2966 ft | 246 kts | 131° |
| 2026-05-05 05:39 | -36.95250 | 174.37866 | 2969 ft | 246 kts | 131° |
| 2026-05-05 05:39 | -36.96455 | 174.39359 | 2973 ft | 246 kts | 131° |
| 2026-05-05 05:39 | -36.97677 | 174.40872 | 2974 ft | 245 kts | 131° |
| 2026-05-05 05:39 | -36.98901 | 174.42390 | 2976 ft | 245 kts | 131° |
| 2026-05-05 05:40 | -37.00118 | 174.43900 | 2978 ft | 245 kts | 131° |
| 2026-05-05 05:40 | -37.01319 | 174.45390 | 2977 ft | 245 kts | 131° |
| 2026-05-05 05:40 | -37.02533 | 174.46896 | 2973 ft | 240 kts | 131° |
| 2026-05-05 05:40 | -37.03699 | 174.48341 | 2969 ft | 228 kts | 131° |
| 2026-05-05 05:41 | -37.04791 | 174.49698 | 2978 ft | 214 kts | 131° |
| 2026-05-05 05:41 | -37.05810 | 174.50963 | 2970 ft | 199 kts | 131° |
| 2026-05-05 05:41 | -37.06759 | 174.52144 | 2969 ft | 184 kts | 130° |
| 2026-05-05 05:41 | -37.07527 | 174.53366 | 2919 ft | 175 kts | 111° |
| 2026-05-05 05:42 | -37.07714 | 174.54771 | 2766 ft | 160 kts | 80° |
| 2026-05-05 05:42 | -37.07450 | 174.56093 | 2671 ft | 150 kts | 69° |
| 2026-05-05 05:42 | -37.07101 | 174.57333 | 2693 ft | 154 kts | 68° |
| 2026-05-05 05:42 | -37.06753 | 174.58565 | 2673 ft | 141 kts | 68° |
| 2026-05-05 05:43 | -37.06431 | 174.59714 | 2679 ft | 138 kts | 68° |
| 2026-05-05 05:43 | -37.06117 | 174.60844 | 2662 ft | 138 kts | 68° |
| 2026-05-05 05:43 | -37.05802 | 174.61983 | 2482 ft | 136 kts | 69° |
| 2026-05-05 05:43 | -37.05495 | 174.63095 | 2314 ft | 134 kts | 69° |
| 2026-05-05 05:44 | -37.05190 | 174.64203 | 2147 ft | 133 kts | 69° |
| 2026-05-05 05:44 | -37.04889 | 174.65295 | 1970 ft | 134 kts | 68° |
| 2026-05-05 05:44 | -37.04593 | 174.66386 | 1803 ft | 133 kts | 68° |
| 2026-05-05 05:44 | -37.04290 | 174.67479 | 1626 ft | 132 kts | 68° |
| 2026-05-05 05:45 | -37.03982 | 174.68594 | 1445 ft | 133 kts | 69° |
| 2026-05-05 05:45 | -37.03677 | 174.69701 | 1266 ft | 134 kts | 69° |
| 2026-05-05 05:45 | -37.03374 | 174.70796 | 1086 ft | 131 kts | 69° |
| 2026-05-05 05:45 | -37.03079 | 174.71866 | 912 ft | 129 kts | 69° |
| 2026-05-05 05:46 | -37.02787 | 174.72919 | 739 ft | 129 kts | 69° |
| 2026-05-05 05:46 | -37.02491 | 174.73987 | 563 ft | 130 kts | 69° |
| 2026-05-05 05:46 | -37.02195 | 174.75056 | 387 ft | 130 kts | 69° |
| 2026-05-05 05:46 | -37.01891 | 174.76155 | 414 ft | 142 kts | 70° |
| 2026-05-05 05:47 | -37.01597 | 174.77222 | 1028 ft | 112 kts | 69° |
| 2026-05-05 05:47 | -37.01348 | 174.78124 | 1029 ft | 121 kts | 69° |
| 2026-05-05 05:47 | -37.01053 | 174.79187 | 1711 ft | 138 kts | 69° |
| 2026-05-05 05:47 | -37.00669 | 174.80324 | 2553 ft | 159 kts | 52° |
| 2026-05-05 05:48 | -36.99894 | 174.81369 | 3311 ft | 172 kts | 44° |
| 2026-05-05 05:48 | -36.98994 | 174.82506 | 3747 ft | 193 kts | 44° |
| 2026-05-05 05:48 | -36.98018 | 174.83714 | 3969 ft | 200 kts | 39° |
| 2026-05-05 05:48 | -36.96778 | 174.84436 | 3976 ft | 200 kts | 5° |
| 2026-05-05 05:49 | -36.95334 | 174.84120 | 4003 ft | 225 kts | 342° |
| 2026-05-05 05:49 | -36.93815 | 174.83383 | 3990 ft | 234 kts | 340° |
| 2026-05-05 05:49 | -36.92360 | 174.82452 | 3970 ft | 237 kts | 322° |
| 2026-05-05 05:49 | -36.91412 | 174.80759 | 3971 ft | 245 kts | 291° |
| 2026-05-05 05:50 | -36.91277 | 174.78628 | 3971 ft | 251 kts | 261° |
| 2026-05-05 05:50 | -36.91744 | 174.76509 | 3978 ft | 253 kts | 255° |
| 2026-05-05 05:50 | -36.92278 | 174.74399 | 3978 ft | 253 kts | 254° |
| 2026-05-05 05:50 | -36.92811 | 174.72317 | 3981 ft | 253 kts | 254° |
| 2026-05-05 05:51 | -36.93355 | 174.70207 | 3989 ft | 253 kts | 254° |
| 2026-05-05 05:51 | -36.93894 | 174.68121 | 3989 ft | 253 kts | 254° |
| 2026-05-05 05:51 | -36.94438 | 174.66025 | 3984 ft | 253 kts | 254° |
| 2026-05-05 05:51 | -36.94985 | 174.63916 | 3987 ft | 253 kts | 254° |
| 2026-05-05 05:52 | -36.95520 | 174.61847 | 3984 ft | 252 kts | 254° |
| 2026-05-05 05:52 | -36.96063 | 174.59734 | 3836 ft | 253 kts | 254° |
| 2026-05-05 05:52 | -36.96594 | 174.57654 | 3644 ft | 251 kts | 254° |
| 2026-05-05 05:52 | -36.97129 | 174.55566 | 3447 ft | 247 kts | 254° |
| 2026-05-05 05:53 | -36.97649 | 174.53543 | 3258 ft | 244 kts | 254° |
| 2026-05-05 05:53 | -36.98170 | 174.51514 | 3070 ft | 241 kts | 254° |
| 2026-05-05 05:53 | -36.98668 | 174.49573 | 2987 ft | 233 kts | 254° |
| 2026-05-05 05:53 | -36.99157 | 174.47679 | 2976 ft | 221 kts | 254° |
| 2026-05-05 05:54 | -36.99662 | 174.45807 | 2978 ft | 221 kts | 248° |
| 2026-05-05 05:54 | -37.00666 | 174.44272 | 2965 ft | 224 kts | 210° |
| 2026-05-05 05:54 | -37.02149 | 174.43718 | 2961 ft | 221 kts | 174° |
| 2026-05-05 05:54 | -37.03620 | 174.44192 | 2978 ft | 216 kts | 153° |
| 2026-05-05 05:55 | -37.04998 | 174.44933 | 2978 ft | 214 kts | 152° |
| 2026-05-05 05:55 | -37.06337 | 174.45677 | 2967 ft | 201 kts | 148° |
| 2026-05-05 05:55 | -37.07431 | 174.46660 | 2971 ft | 191 kts | 131° |
| 2026-05-05 05:55 | -37.08218 | 174.47960 | 2977 ft | 186 kts | 117° |
| 2026-05-05 05:56 | -37.08715 | 174.49405 | 2976 ft | 180 kts | 97° |
| 2026-05-05 05:56 | -37.08749 | 174.50943 | 2976 ft | 176 kts | 78° |
| 2026-05-05 05:56 | -37.08456 | 174.52425 | 2979 ft | 174 kts | 70° |
| 2026-05-05 05:56 | -37.08069 | 174.53868 | 2982 ft | 174 kts | 68° |
| 2026-05-05 05:57 | -37.07668 | 174.55289 | 2977 ft | 170 kts | 68° |
| 2026-05-05 05:57 | -37.07292 | 174.56625 | 2973 ft | 154 kts | 67° |
| 2026-05-05 05:57 | -37.06952 | 174.57837 | 2984 ft | 142 kts | 67° |
| 2026-05-05 05:57 | -37.06634 | 174.58978 | 2986 ft | 138 kts | 67° |
| 2026-05-05 05:58 | -37.06315 | 174.60132 | 2828 ft | 138 kts | 68° |
| 2026-05-05 05:58 | -37.06010 | 174.61241 | 2650 ft | 132 kts | 68° |
| 2026-05-05 05:58 | -37.05708 | 174.62335 | 2482 ft | 130 kts | 68° |
| 2026-05-05 05:58 | -37.05414 | 174.63403 | 2317 ft | 130 kts | 68° |
| 2026-05-05 05:59 | -37.05121 | 174.64467 | 2148 ft | 128 kts | 68° |
| 2026-05-05 05:59 | -37.04827 | 174.65533 | 1973 ft | 129 kts | 68° |
| 2026-05-05 05:59 | -37.04538 | 174.66580 | 1801 ft | 127 kts | 68° |
| 2026-05-05 05:59 | -37.04248 | 174.67629 | 1627 ft | 127 kts | 68° |
| 2026-05-05 06:00 | -37.03958 | 174.68680 | 1451 ft | 128 kts | 69° |
| 2026-05-05 06:00 | -37.03667 | 174.69734 | 1276 ft | 129 kts | 69° |
| 2026-05-05 06:00 | -37.03376 | 174.70789 | 1097 ft | 128 kts | 69° |
| 2026-05-05 06:00 | -37.03083 | 174.71846 | 919 ft | 128 kts | 69° |
| 2026-05-05 06:01 | -37.02795 | 174.72888 | 744 ft | 128 kts | 69° |
| 2026-05-05 06:01 | -37.02501 | 174.73950 | 569 ft | 128 kts | 70° |
| 2026-05-05 06:01 | -37.02206 | 174.75020 | 392 ft | 129 kts | 70° |
| 2026-05-05 06:01 | -37.01915 | 174.76071 | 223 ft | 129 kts | 70° |
| 2026-05-05 06:02 | -37.01620 | 174.77133 | 49 ft | 125 kts | 70° |
| 2026-05-05 06:02 | -37.01490 | 174.77606 | 32 ft | 0 kts | 71° |
| 2026-05-05 06:03 | -37.01481 | 174.77640 | 32 ft | 8 kts | 71° |
| 2026-05-05 06:03 | -37.01453 | 174.77743 | 32 ft | 15 kts | 71° |
| 2026-05-05 06:03 | -37.01409 | 174.77899 | 32 ft | 21 kts | 70° |
| 2026-05-05 06:03 | -37.01366 | 174.78052 | 32 ft | 0 kts | 70° |
| 2026-05-05 06:04 | -37.01358 | 174.78081 | 32 ft | 6 kts | 70° |
| 2026-05-05 06:04 | -37.01336 | 174.78157 | 32 ft | 11 kts | 70° |
| 2026-05-05 06:04 | -37.01299 | 174.78271 | 32 ft | 16 kts | 58° |
| 2026-05-05 06:04 | -37.01226 | 174.78401 | 29 ft | 19 kts | 44° |
| 2026-05-05 06:05 | -37.01118 | 174.78510 | 30 ft | 19 kts | 39° |
| 2026-05-05 06:05 | -37.01016 | 174.78589 | 32 ft | 16 kts | 352° |
| 2026-05-05 06:05 | -37.00956 | 174.78490 | 33 ft | 15 kts | 253° |
| 2026-05-05 06:05 | -37.00990 | 174.78357 | 32 ft | 16 kts | 258° |
| 2026-05-05 06:06 | -37.00967 | 174.78227 | 32 ft | 15 kts | 306° |
| 2026-05-05 06:06 | -37.00913 | 174.78116 | 34 ft | 14 kts | 300° |
| 2026-05-05 06:06 | -37.00854 | 174.78036 | 37 ft | 11 kts | 342° |
| 2026-05-05 06:06 | -37.00799 | 174.78053 | 38 ft | 7 kts | 71° |
| 2026-05-05 06:07 | -37.00777 | 174.78122 | 37 ft | 5 kts | 68° |
| 2026-05-05 06:07 | -37.00777 | 174.78124 | 37 ft | 0 kts | 68° |